<?xml version="1.0" encoding="UTF-8" standalone="no" ?>
<gpx xmlns="http://www.topografix.com/GPX/1/1" xmlns:xsi="http://www.w3.org/2001/XMLSchema-instance" xsi:schemaLocation="http://www.topografix.com/GPX/1/1 http://www.topografix.com/GPX/1/1/gpx.xsd" version="1.1" creator="VisuGPX - https://www.visugpx.com">
  <metadata>
    <name>Chaliers 57.7km 930d+</name>
    <desc><![CDATA[Chaliers 57.7km 930d+

100% Routes faible circulation]]></desc>
  </metadata>
  <trk>
    <name><![CDATA[Chaliers 57.7km 930d+ on GPSies.com]]></name>
    <trkseg>
      <trkpt lat="45.03375" lon="3.106">
        <ele>772</ele>
        <time>2010-01-01T00:00:00Z</time>
      </trkpt>
      <trkpt lat="45.03395" lon="3.10947">
        <ele>774</ele>
        <time>2010-01-01T00:00:44Z</time>
      </trkpt>
      <trkpt lat="45.03395" lon="3.10954">
        <ele>774</ele>
        <time>2010-01-01T00:00:45Z</time>
      </trkpt>
      <trkpt lat="45.03395" lon="3.10973">
        <ele>774</ele>
        <time>2010-01-01T00:00:48Z</time>
      </trkpt>
      <trkpt lat="45.03392" lon="3.11007">
        <ele>775</ele>
        <time>2010-01-01T00:00:52Z</time>
      </trkpt>
      <trkpt lat="45.03382" lon="3.11065">
        <ele>780</ele>
        <time>2010-01-01T00:01:00Z</time>
      </trkpt>
      <trkpt lat="45.03371" lon="3.11085">
        <ele>780</ele>
        <time>2010-01-01T00:01:03Z</time>
      </trkpt>
      <trkpt lat="45.03313" lon="3.11115">
        <ele>776</ele>
        <time>2010-01-01T00:01:14Z</time>
      </trkpt>
      <trkpt lat="45.033" lon="3.11123">
        <ele>777</ele>
        <time>2010-01-01T00:01:17Z</time>
      </trkpt>
      <trkpt lat="45.03273" lon="3.11149">
        <ele>778</ele>
        <time>2010-01-01T00:01:23Z</time>
      </trkpt>
      <trkpt lat="45.0327" lon="3.11151">
        <ele>778</ele>
        <time>2010-01-01T00:01:23Z</time>
      </trkpt>
      <trkpt lat="45.03251" lon="3.11186">
        <ele>779</ele>
        <time>2010-01-01T00:01:29Z</time>
      </trkpt>
      <trkpt lat="45.03223" lon="3.11248">
        <ele>778</ele>
        <time>2010-01-01T00:01:38Z</time>
      </trkpt>
      <trkpt lat="45.03129" lon="3.11381">
        <ele>774</ele>
        <time>2010-01-01T00:02:03Z</time>
      </trkpt>
      <trkpt lat="45.03109" lon="3.11426">
        <ele>773</ele>
        <time>2010-01-01T00:02:09Z</time>
      </trkpt>
      <trkpt lat="45.03114" lon="3.11477">
        <ele>775</ele>
        <time>2010-01-01T00:02:16Z</time>
      </trkpt>
      <trkpt lat="45.03139" lon="3.11544">
        <ele>778</ele>
        <time>2010-01-01T00:02:26Z</time>
      </trkpt>
      <trkpt lat="45.03159" lon="3.11587">
        <ele>779</ele>
        <time>2010-01-01T00:02:32Z</time>
      </trkpt>
      <trkpt lat="45.03214" lon="3.11735">
        <ele>783</ele>
        <time>2010-01-01T00:02:54Z</time>
      </trkpt>
      <trkpt lat="45.03232" lon="3.11782">
        <ele>782</ele>
        <time>2010-01-01T00:03:01Z</time>
      </trkpt>
      <trkpt lat="45.03251" lon="3.11859">
        <ele>782</ele>
        <time>2010-01-01T00:03:11Z</time>
      </trkpt>
      <trkpt lat="45.03268" lon="3.11984">
        <ele>782</ele>
        <time>2010-01-01T00:03:28Z</time>
      </trkpt>
      <trkpt lat="45.03283" lon="3.12057">
        <ele>779</ele>
        <time>2010-01-01T00:03:37Z</time>
      </trkpt>
      <trkpt lat="45.03304" lon="3.12063">
        <ele>782</ele>
        <time>2010-01-01T00:03:41Z</time>
      </trkpt>
      <trkpt lat="45.03315" lon="3.12076">
        <ele>784</ele>
        <time>2010-01-01T00:03:44Z</time>
      </trkpt>
      <trkpt lat="45.03356" lon="3.12183">
        <ele>789</ele>
        <time>2010-01-01T00:04:00Z</time>
      </trkpt>
      <trkpt lat="45.03388" lon="3.12295">
        <ele>795</ele>
        <time>2010-01-01T00:04:15Z</time>
      </trkpt>
      <trkpt lat="45.03416" lon="3.12392">
        <ele>792</ele>
        <time>2010-01-01T00:04:29Z</time>
      </trkpt>
      <trkpt lat="45.03435" lon="3.12479">
        <ele>794</ele>
        <time>2010-01-01T00:04:40Z</time>
      </trkpt>
      <trkpt lat="45.03438" lon="3.12555">
        <ele>794</ele>
        <time>2010-01-01T00:04:50Z</time>
      </trkpt>
      <trkpt lat="45.0344" lon="3.12563">
        <ele>793</ele>
        <time>2010-01-01T00:04:51Z</time>
      </trkpt>
      <trkpt lat="45.0345" lon="3.12574">
        <ele>793</ele>
        <time>2010-01-01T00:04:54Z</time>
      </trkpt>
      <trkpt lat="45.03483" lon="3.12589">
        <ele>795</ele>
        <time>2010-01-01T00:05:00Z</time>
      </trkpt>
      <trkpt lat="45.03519" lon="3.12647">
        <ele>792</ele>
        <time>2010-01-01T00:05:10Z</time>
      </trkpt>
      <trkpt lat="45.03581" lon="3.12692">
        <ele>796</ele>
        <time>2010-01-01T00:05:22Z</time>
      </trkpt>
      <trkpt lat="45.03594" lon="3.12701">
        <ele>798</ele>
        <time>2010-01-01T00:05:25Z</time>
      </trkpt>
      <trkpt lat="45.03624" lon="3.1272">
        <ele>798</ele>
        <time>2010-01-01T00:05:31Z</time>
      </trkpt>
      <trkpt lat="45.03631" lon="3.12724">
        <ele>798</ele>
        <time>2010-01-01T00:05:32Z</time>
      </trkpt>
      <trkpt lat="45.03652" lon="3.12743">
        <ele>796</ele>
        <time>2010-01-01T00:05:37Z</time>
      </trkpt>
      <trkpt lat="45.03661" lon="3.12754">
        <ele>796</ele>
        <time>2010-01-01T00:05:39Z</time>
      </trkpt>
      <trkpt lat="45.03691" lon="3.12806">
        <ele>796</ele>
        <time>2010-01-01T00:05:48Z</time>
      </trkpt>
      <trkpt lat="45.03699" lon="3.12853">
        <ele>797</ele>
        <time>2010-01-01T00:05:54Z</time>
      </trkpt>
      <trkpt lat="45.03704" lon="3.12915">
        <ele>800</ele>
        <time>2010-01-01T00:06:02Z</time>
      </trkpt>
      <trkpt lat="45.03712" lon="3.12947">
        <ele>801</ele>
        <time>2010-01-01T00:06:06Z</time>
      </trkpt>
      <trkpt lat="45.03768" lon="3.13046">
        <ele>805</ele>
        <time>2010-01-01T00:06:23Z</time>
      </trkpt>
      <trkpt lat="45.03787" lon="3.13093">
        <ele>807</ele>
        <time>2010-01-01T00:06:30Z</time>
      </trkpt>
      <trkpt lat="45.03804" lon="3.13147">
        <ele>808</ele>
        <time>2010-01-01T00:06:37Z</time>
      </trkpt>
      <trkpt lat="45.03813" lon="3.132">
        <ele>809</ele>
        <time>2010-01-01T00:06:44Z</time>
      </trkpt>
      <trkpt lat="45.03807" lon="3.13673">
        <ele>818</ele>
        <time>2010-01-01T00:07:45Z</time>
      </trkpt>
      <trkpt lat="45.03804" lon="3.13767">
        <ele>818</ele>
        <time>2010-01-01T00:07:57Z</time>
      </trkpt>
      <trkpt lat="45.03807" lon="3.13883">
        <ele>820</ele>
        <time>2010-01-01T00:08:12Z</time>
      </trkpt>
      <trkpt lat="45.03826" lon="3.13921">
        <ele>820</ele>
        <time>2010-01-01T00:08:18Z</time>
      </trkpt>
      <trkpt lat="45.03892" lon="3.13975">
        <ele>822</ele>
        <time>2010-01-01T00:08:32Z</time>
      </trkpt>
      <trkpt lat="45.0392" lon="3.14012">
        <ele>824</ele>
        <time>2010-01-01T00:08:39Z</time>
      </trkpt>
      <trkpt lat="45.0394" lon="3.14046">
        <ele>826</ele>
        <time>2010-01-01T00:08:45Z</time>
      </trkpt>
      <trkpt lat="45.03953" lon="3.14085">
        <ele>826</ele>
        <time>2010-01-01T00:08:50Z</time>
      </trkpt>
      <trkpt lat="45.03963" lon="3.14145">
        <ele>826</ele>
        <time>2010-01-01T00:08:58Z</time>
      </trkpt>
      <trkpt lat="45.03965" lon="3.14181">
        <ele>825</ele>
        <time>2010-01-01T00:09:03Z</time>
      </trkpt>
      <trkpt lat="45.03948" lon="3.14293">
        <ele>832</ele>
        <time>2010-01-01T00:09:17Z</time>
      </trkpt>
      <trkpt lat="45.03927" lon="3.1443">
        <ele>829</ele>
        <time>2010-01-01T00:09:36Z</time>
      </trkpt>
      <trkpt lat="45.03931" lon="3.14503">
        <ele>833</ele>
        <time>2010-01-01T00:09:45Z</time>
      </trkpt>
      <trkpt lat="45.04008" lon="3.14724">
        <ele>832</ele>
        <time>2010-01-01T00:10:17Z</time>
      </trkpt>
      <trkpt lat="45.04034" lon="3.14763">
        <ele>831</ele>
        <time>2010-01-01T00:10:23Z</time>
      </trkpt>
      <trkpt lat="45.04068" lon="3.14793">
        <ele>829</ele>
        <time>2010-01-01T00:10:31Z</time>
      </trkpt>
      <trkpt lat="45.04113" lon="3.14803">
        <ele>828</ele>
        <time>2010-01-01T00:10:39Z</time>
      </trkpt>
      <trkpt lat="45.04171" lon="3.14801">
        <ele>826</ele>
        <time>2010-01-01T00:10:50Z</time>
      </trkpt>
      <trkpt lat="45.04197" lon="3.14816">
        <ele>829</ele>
        <time>2010-01-01T00:10:55Z</time>
      </trkpt>
      <trkpt lat="45.0421" lon="3.14833">
        <ele>830</ele>
        <time>2010-01-01T00:10:58Z</time>
      </trkpt>
      <trkpt lat="45.04219" lon="3.14853">
        <ele>829</ele>
        <time>2010-01-01T00:11:01Z</time>
      </trkpt>
      <trkpt lat="45.04244" lon="3.14947">
        <ele>828</ele>
        <time>2010-01-01T00:11:14Z</time>
      </trkpt>
      <trkpt lat="45.04277" lon="3.15022">
        <ele>826</ele>
        <time>2010-01-01T00:11:25Z</time>
      </trkpt>
      <trkpt lat="45.04294" lon="3.15136">
        <ele>826</ele>
        <time>2010-01-01T00:11:40Z</time>
      </trkpt>
      <trkpt lat="45.04304" lon="3.1516">
        <ele>826</ele>
        <time>2010-01-01T00:11:44Z</time>
      </trkpt>
      <trkpt lat="45.04319" lon="3.15179">
        <ele>826</ele>
        <time>2010-01-01T00:11:47Z</time>
      </trkpt>
      <trkpt lat="45.04364" lon="3.15202">
        <ele>827</ele>
        <time>2010-01-01T00:11:56Z</time>
      </trkpt>
      <trkpt lat="45.04601" lon="3.15301">
        <ele>818</ele>
        <time>2010-01-01T00:12:41Z</time>
      </trkpt>
      <trkpt lat="45.04622" lon="3.15314">
        <ele>819</ele>
        <time>2010-01-01T00:12:45Z</time>
      </trkpt>
      <trkpt lat="45.04652" lon="3.15351">
        <ele>819</ele>
        <time>2010-01-01T00:12:52Z</time>
      </trkpt>
      <trkpt lat="45.04689" lon="3.15432">
        <ele>817</ele>
        <time>2010-01-01T00:13:05Z</time>
      </trkpt>
      <trkpt lat="45.04734" lon="3.15557">
        <ele>822</ele>
        <time>2010-01-01T00:13:23Z</time>
      </trkpt>
      <trkpt lat="45.0474" lon="3.1561">
        <ele>822</ele>
        <time>2010-01-01T00:13:30Z</time>
      </trkpt>
      <trkpt lat="45.04736" lon="3.15647">
        <ele>823</ele>
        <time>2010-01-01T00:13:35Z</time>
      </trkpt>
      <trkpt lat="45.04714" lon="3.15683">
        <ele>825</ele>
        <time>2010-01-01T00:13:41Z</time>
      </trkpt>
      <trkpt lat="45.0468" lon="3.15722">
        <ele>828</ele>
        <time>2010-01-01T00:13:49Z</time>
      </trkpt>
      <trkpt lat="45.04637" lon="3.15782">
        <ele>833</ele>
        <time>2010-01-01T00:14:00Z</time>
      </trkpt>
      <trkpt lat="45.04618" lon="3.1582">
        <ele>838</ele>
        <time>2010-01-01T00:14:06Z</time>
      </trkpt>
      <trkpt lat="45.04601" lon="3.15878">
        <ele>842</ele>
        <time>2010-01-01T00:14:14Z</time>
      </trkpt>
      <trkpt lat="45.04596" lon="3.15917">
        <ele>842</ele>
        <time>2010-01-01T00:14:19Z</time>
      </trkpt>
      <trkpt lat="45.04601" lon="3.15996">
        <ele>844</ele>
        <time>2010-01-01T00:14:29Z</time>
      </trkpt>
      <trkpt lat="45.04613" lon="3.16052">
        <ele>850</ele>
        <time>2010-01-01T00:14:37Z</time>
      </trkpt>
      <trkpt lat="45.04628" lon="3.16089">
        <ele>853</ele>
        <time>2010-01-01T00:14:42Z</time>
      </trkpt>
      <trkpt lat="45.04697" lon="3.16198">
        <ele>858</ele>
        <time>2010-01-01T00:15:01Z</time>
      </trkpt>
      <trkpt lat="45.04781" lon="3.16282">
        <ele>862</ele>
        <time>2010-01-01T00:15:19Z</time>
      </trkpt>
      <trkpt lat="45.04824" lon="3.16338">
        <ele>866</ele>
        <time>2010-01-01T00:15:30Z</time>
      </trkpt>
      <trkpt lat="45.04858" lon="3.16419">
        <ele>865</ele>
        <time>2010-01-01T00:15:42Z</time>
      </trkpt>
      <trkpt lat="45.04879" lon="3.16574">
        <ele>871</ele>
        <time>2010-01-01T00:16:03Z</time>
      </trkpt>
      <trkpt lat="45.04903" lon="3.16623">
        <ele>875</ele>
        <time>2010-01-01T00:16:10Z</time>
      </trkpt>
      <trkpt lat="45.04948" lon="3.16672">
        <ele>878</ele>
        <time>2010-01-01T00:16:21Z</time>
      </trkpt>
      <trkpt lat="45.04963" lon="3.167">
        <ele>879</ele>
        <time>2010-01-01T00:16:25Z</time>
      </trkpt>
      <trkpt lat="45.04974" lon="3.16754">
        <ele>882</ele>
        <time>2010-01-01T00:16:32Z</time>
      </trkpt>
      <trkpt lat="45.04961" lon="3.1685">
        <ele>885</ele>
        <time>2010-01-01T00:16:45Z</time>
      </trkpt>
      <trkpt lat="45.04959" lon="3.1688">
        <ele>886</ele>
        <time>2010-01-01T00:16:49Z</time>
      </trkpt>
      <trkpt lat="45.04965" lon="3.16915">
        <ele>888</ele>
        <time>2010-01-01T00:16:53Z</time>
      </trkpt>
      <trkpt lat="45.0503" lon="3.17014">
        <ele>891</ele>
        <time>2010-01-01T00:17:11Z</time>
      </trkpt>
      <trkpt lat="45.05094" lon="3.17112">
        <ele>900</ele>
        <time>2010-01-01T00:17:28Z</time>
      </trkpt>
      <trkpt lat="45.05107" lon="3.17162">
        <ele>902</ele>
        <time>2010-01-01T00:17:35Z</time>
      </trkpt>
      <trkpt lat="45.05105" lon="3.17198">
        <ele>901</ele>
        <time>2010-01-01T00:17:39Z</time>
      </trkpt>
      <trkpt lat="45.05094" lon="3.17258">
        <ele>903</ele>
        <time>2010-01-01T00:17:47Z</time>
      </trkpt>
      <trkpt lat="45.0509" lon="3.17325">
        <ele>906</ele>
        <time>2010-01-01T00:17:56Z</time>
      </trkpt>
      <trkpt lat="45.05098" lon="3.17378">
        <ele>908</ele>
        <time>2010-01-01T00:18:03Z</time>
      </trkpt>
      <trkpt lat="45.05118" lon="3.17432">
        <ele>908</ele>
        <time>2010-01-01T00:18:11Z</time>
      </trkpt>
      <trkpt lat="45.05126" lon="3.17445">
        <ele>907</ele>
        <time>2010-01-01T00:18:13Z</time>
      </trkpt>
      <trkpt lat="45.05143" lon="3.17451">
        <ele>908</ele>
        <time>2010-01-01T00:18:16Z</time>
      </trkpt>
      <trkpt lat="45.05223" lon="3.17417">
        <ele>920</ele>
        <time>2010-01-01T00:18:31Z</time>
      </trkpt>
      <trkpt lat="45.05253" lon="3.1741">
        <ele>920</ele>
        <time>2010-01-01T00:18:37Z</time>
      </trkpt>
      <trkpt lat="45.05281" lon="3.17415">
        <ele>920</ele>
        <time>2010-01-01T00:18:42Z</time>
      </trkpt>
      <trkpt lat="45.05322" lon="3.17441">
        <ele>922</ele>
        <time>2010-01-01T00:18:50Z</time>
      </trkpt>
      <trkpt lat="45.05337" lon="3.17443">
        <ele>923</ele>
        <time>2010-01-01T00:18:53Z</time>
      </trkpt>
      <trkpt lat="45.05375" lon="3.17438">
        <ele>924</ele>
        <time>2010-01-01T00:19:00Z</time>
      </trkpt>
      <trkpt lat="45.0542" lon="3.17425">
        <ele>929</ele>
        <time>2010-01-01T00:19:08Z</time>
      </trkpt>
      <trkpt lat="45.05429" lon="3.17423">
        <ele>929</ele>
        <time>2010-01-01T00:19:10Z</time>
      </trkpt>
      <trkpt lat="45.05455" lon="3.17425">
        <ele>931</ele>
        <time>2010-01-01T00:19:14Z</time>
      </trkpt>
      <trkpt lat="45.05478" lon="3.17443">
        <ele>933</ele>
        <time>2010-01-01T00:19:19Z</time>
      </trkpt>
      <trkpt lat="45.05502" lon="3.17496">
        <ele>939</ele>
        <time>2010-01-01T00:19:27Z</time>
      </trkpt>
      <trkpt lat="45.05506" lon="3.17544">
        <ele>941</ele>
        <time>2010-01-01T00:19:34Z</time>
      </trkpt>
      <trkpt lat="45.05489" lon="3.17606">
        <ele>943</ele>
        <time>2010-01-01T00:19:42Z</time>
      </trkpt>
      <trkpt lat="45.05405" lon="3.17743">
        <ele>946</ele>
        <time>2010-01-01T00:20:05Z</time>
      </trkpt>
      <trkpt lat="45.05343" lon="3.17893">
        <ele>952</ele>
        <time>2010-01-01T00:20:28Z</time>
      </trkpt>
      <trkpt lat="45.0533" lon="3.1794">
        <ele>951</ele>
        <time>2010-01-01T00:20:34Z</time>
      </trkpt>
      <trkpt lat="45.05334" lon="3.17966">
        <ele>953</ele>
        <time>2010-01-01T00:20:38Z</time>
      </trkpt>
      <trkpt lat="45.05341" lon="3.17979">
        <ele>955</ele>
        <time>2010-01-01T00:20:40Z</time>
      </trkpt>
      <trkpt lat="45.05422" lon="3.18071">
        <ele>968</ele>
        <time>2010-01-01T00:20:59Z</time>
      </trkpt>
      <trkpt lat="45.05444" lon="3.1811">
        <ele>973</ele>
        <time>2010-01-01T00:21:05Z</time>
      </trkpt>
      <trkpt lat="45.05463" lon="3.18179">
        <ele>974</ele>
        <time>2010-01-01T00:21:15Z</time>
      </trkpt>
      <trkpt lat="45.0547" lon="3.18228">
        <ele>971</ele>
        <time>2010-01-01T00:21:21Z</time>
      </trkpt>
      <trkpt lat="45.0547" lon="3.18258">
        <ele>972</ele>
        <time>2010-01-01T00:21:25Z</time>
      </trkpt>
      <trkpt lat="45.05463" lon="3.18288">
        <ele>974</ele>
        <time>2010-01-01T00:21:29Z</time>
      </trkpt>
      <trkpt lat="45.05446" lon="3.18305">
        <ele>975</ele>
        <time>2010-01-01T00:21:33Z</time>
      </trkpt>
      <trkpt lat="45.05429" lon="3.18299">
        <ele>979</ele>
        <time>2010-01-01T00:21:36Z</time>
      </trkpt>
      <trkpt lat="45.05399" lon="3.18247">
        <ele>977</ele>
        <time>2010-01-01T00:21:45Z</time>
      </trkpt>
      <trkpt lat="45.05377" lon="3.18219">
        <ele>974</ele>
        <time>2010-01-01T00:21:50Z</time>
      </trkpt>
      <trkpt lat="45.05334" lon="3.18185">
        <ele>977</ele>
        <time>2010-01-01T00:21:59Z</time>
      </trkpt>
      <trkpt lat="45.05309" lon="3.18181">
        <ele>978</ele>
        <time>2010-01-01T00:22:04Z</time>
      </trkpt>
      <trkpt lat="45.0527" lon="3.182">
        <ele>978</ele>
        <time>2010-01-01T00:22:11Z</time>
      </trkpt>
      <trkpt lat="45.05227" lon="3.1826">
        <ele>983</ele>
        <time>2010-01-01T00:22:22Z</time>
      </trkpt>
      <trkpt lat="45.05203" lon="3.18312">
        <ele>986</ele>
        <time>2010-01-01T00:22:30Z</time>
      </trkpt>
      <trkpt lat="45.05182" lon="3.18415">
        <ele>993</ele>
        <time>2010-01-01T00:22:44Z</time>
      </trkpt>
      <trkpt lat="45.05167" lon="3.18432">
        <ele>994</ele>
        <time>2010-01-01T00:22:47Z</time>
      </trkpt>
      <trkpt lat="45.05126" lon="3.18455">
        <ele>995</ele>
        <time>2010-01-01T00:22:55Z</time>
      </trkpt>
      <trkpt lat="45.05098" lon="3.18496">
        <ele>994</ele>
        <time>2010-01-01T00:23:03Z</time>
      </trkpt>
      <trkpt lat="45.05079" lon="3.18552">
        <ele>995</ele>
        <time>2010-01-01T00:23:11Z</time>
      </trkpt>
      <trkpt lat="45.05073" lon="3.18588">
        <ele>997</ele>
        <time>2010-01-01T00:23:15Z</time>
      </trkpt>
      <trkpt lat="45.05077" lon="3.18616">
        <ele>998</ele>
        <time>2010-01-01T00:23:19Z</time>
      </trkpt>
      <trkpt lat="45.051" lon="3.18691">
        <ele>1004</ele>
        <time>2010-01-01T00:23:30Z</time>
      </trkpt>
      <trkpt lat="45.05116" lon="3.1873">
        <ele>1007</ele>
        <time>2010-01-01T00:23:35Z</time>
      </trkpt>
      <trkpt lat="45.05154" lon="3.18803">
        <ele>1007</ele>
        <time>2010-01-01T00:23:47Z</time>
      </trkpt>
      <trkpt lat="45.05171" lon="3.18822">
        <ele>1009</ele>
        <time>2010-01-01T00:23:51Z</time>
      </trkpt>
      <trkpt lat="45.05283" lon="3.18861">
        <ele>1026</ele>
        <time>2010-01-01T00:24:12Z</time>
      </trkpt>
      <trkpt lat="45.05309" lon="3.18889">
        <ele>1028</ele>
        <time>2010-01-01T00:24:18Z</time>
      </trkpt>
      <trkpt lat="45.0533" lon="3.18925">
        <ele>1029</ele>
        <time>2010-01-01T00:24:24Z</time>
      </trkpt>
      <trkpt lat="45.05362" lon="3.1902">
        <ele>1032</ele>
        <time>2010-01-01T00:24:37Z</time>
      </trkpt>
      <trkpt lat="45.05362" lon="3.19058">
        <ele>1029</ele>
        <time>2010-01-01T00:24:42Z</time>
      </trkpt>
      <trkpt lat="45.05354" lon="3.19114">
        <ele>1028</ele>
        <time>2010-01-01T00:24:50Z</time>
      </trkpt>
      <trkpt lat="45.05358" lon="3.19144">
        <ele>1027</ele>
        <time>2010-01-01T00:24:54Z</time>
      </trkpt>
      <trkpt lat="45.05375" lon="3.19159">
        <ele>1027</ele>
        <time>2010-01-01T00:24:57Z</time>
      </trkpt>
      <trkpt lat="45.0544" lon="3.19179">
        <ele>1037</ele>
        <time>2010-01-01T00:25:09Z</time>
      </trkpt>
      <trkpt lat="45.05491" lon="3.19206">
        <ele>1042</ele>
        <time>2010-01-01T00:25:19Z</time>
      </trkpt>
      <trkpt lat="45.05532" lon="3.19234">
        <ele>1041</ele>
        <time>2010-01-01T00:25:27Z</time>
      </trkpt>
      <trkpt lat="45.05622" lon="3.19245">
        <ele>1053</ele>
        <time>2010-01-01T00:25:44Z</time>
      </trkpt>
      <trkpt lat="45.05671" lon="3.19275">
        <ele>1049</ele>
        <time>2010-01-01T00:25:54Z</time>
      </trkpt>
      <trkpt lat="45.05691" lon="3.19301">
        <ele>1048</ele>
        <time>2010-01-01T00:25:59Z</time>
      </trkpt>
      <trkpt lat="45.0577" lon="3.19458">
        <ele>1054</ele>
        <time>2010-01-01T00:26:23Z</time>
      </trkpt>
      <trkpt lat="45.05789" lon="3.1949">
        <ele>1057</ele>
        <time>2010-01-01T00:26:29Z</time>
      </trkpt>
      <trkpt lat="45.05821" lon="3.19518">
        <ele>1059</ele>
        <time>2010-01-01T00:26:36Z</time>
      </trkpt>
      <trkpt lat="45.05867" lon="3.19533">
        <ele>1056</ele>
        <time>2010-01-01T00:26:44Z</time>
      </trkpt>
      <trkpt lat="45.05929" lon="3.19526">
        <ele>1058</ele>
        <time>2010-01-01T00:26:55Z</time>
      </trkpt>
      <trkpt lat="45.05948" lon="3.19535">
        <ele>1059</ele>
        <time>2010-01-01T00:26:59Z</time>
      </trkpt>
      <trkpt lat="45.05955" lon="3.19543">
        <ele>1060</ele>
        <time>2010-01-01T00:27:01Z</time>
      </trkpt>
      <trkpt lat="45.05991" lon="3.19621">
        <ele>1064</ele>
        <time>2010-01-01T00:27:13Z</time>
      </trkpt>
      <trkpt lat="45.06036" lon="3.19668">
        <ele>1068</ele>
        <time>2010-01-01T00:27:23Z</time>
      </trkpt>
      <trkpt lat="45.06105" lon="3.19764">
        <ele>1069</ele>
        <time>2010-01-01T00:27:40Z</time>
      </trkpt>
      <trkpt lat="45.06133" lon="3.19786">
        <ele>1072</ele>
        <time>2010-01-01T00:27:46Z</time>
      </trkpt>
      <trkpt lat="45.06221" lon="3.19807">
        <ele>1075</ele>
        <time>2010-01-01T00:28:02Z</time>
      </trkpt>
      <trkpt lat="45.06266" lon="3.19839">
        <ele>1081</ele>
        <time>2010-01-01T00:28:12Z</time>
      </trkpt>
      <trkpt lat="45.06296" lon="3.1988">
        <ele>1084</ele>
        <time>2010-01-01T00:28:19Z</time>
      </trkpt>
      <trkpt lat="45.06313" lon="3.19923">
        <ele>1084</ele>
        <time>2010-01-01T00:28:26Z</time>
      </trkpt>
      <trkpt lat="45.06319" lon="3.19964">
        <ele>1085</ele>
        <time>2010-01-01T00:28:31Z</time>
      </trkpt>
      <trkpt lat="45.06315" lon="3.20013">
        <ele>1088</ele>
        <time>2010-01-01T00:28:37Z</time>
      </trkpt>
      <trkpt lat="45.06304" lon="3.20086">
        <ele>1089</ele>
        <time>2010-01-01T00:28:47Z</time>
      </trkpt>
      <trkpt lat="45.06302" lon="3.20292">
        <ele>1096</ele>
        <time>2010-01-01T00:29:13Z</time>
      </trkpt>
      <trkpt lat="45.06309" lon="3.20369">
        <ele>1097</ele>
        <time>2010-01-01T00:29:23Z</time>
      </trkpt>
      <trkpt lat="45.06317" lon="3.20412">
        <ele>1097</ele>
        <time>2010-01-01T00:29:29Z</time>
      </trkpt>
      <trkpt lat="45.06336" lon="3.2049">
        <ele>1095</ele>
        <time>2010-01-01T00:29:40Z</time>
      </trkpt>
      <trkpt lat="45.06343" lon="3.20552">
        <ele>1095</ele>
        <time>2010-01-01T00:29:48Z</time>
      </trkpt>
      <trkpt lat="45.06339" lon="3.20629">
        <ele>1092</ele>
        <time>2010-01-01T00:29:58Z</time>
      </trkpt>
      <trkpt lat="45.06321" lon="3.20685">
        <ele>1091</ele>
        <time>2010-01-01T00:30:05Z</time>
      </trkpt>
      <trkpt lat="45.06281" lon="3.20784">
        <ele>1086</ele>
        <time>2010-01-01T00:30:20Z</time>
      </trkpt>
      <trkpt lat="45.06218" lon="3.20908">
        <ele>1088</ele>
        <time>2010-01-01T00:30:40Z</time>
      </trkpt>
      <trkpt lat="45.06197" lon="3.20966">
        <ele>1086</ele>
        <time>2010-01-01T00:30:48Z</time>
      </trkpt>
      <trkpt lat="45.06158" lon="3.21151">
        <ele>1076</ele>
        <time>2010-01-01T00:31:13Z</time>
      </trkpt>
      <trkpt lat="45.06158" lon="3.21262">
        <ele>1073</ele>
        <time>2010-01-01T00:31:27Z</time>
      </trkpt>
      <trkpt lat="45.06154" lon="3.21301">
        <ele>1074</ele>
        <time>2010-01-01T00:31:32Z</time>
      </trkpt>
      <trkpt lat="45.06137" lon="3.21335">
        <ele>1073</ele>
        <time>2010-01-01T00:31:38Z</time>
      </trkpt>
      <trkpt lat="45.06096" lon="3.21389">
        <ele>1068</ele>
        <time>2010-01-01T00:31:48Z</time>
      </trkpt>
      <trkpt lat="45.06092" lon="3.21406">
        <ele>1068</ele>
        <time>2010-01-01T00:31:50Z</time>
      </trkpt>
      <trkpt lat="45.0609" lon="3.21423">
        <ele>1068</ele>
        <time>2010-01-01T00:31:52Z</time>
      </trkpt>
      <trkpt lat="45.06098" lon="3.21455">
        <ele>1071</ele>
        <time>2010-01-01T00:31:57Z</time>
      </trkpt>
      <trkpt lat="45.06133" lon="3.2149">
        <ele>1072</ele>
        <time>2010-01-01T00:32:04Z</time>
      </trkpt>
      <trkpt lat="45.06167" lon="3.21517">
        <ele>1071</ele>
        <time>2010-01-01T00:32:12Z</time>
      </trkpt>
      <trkpt lat="45.06184" lon="3.21552">
        <ele>1072</ele>
        <time>2010-01-01T00:32:17Z</time>
      </trkpt>
      <trkpt lat="45.06191" lon="3.21571">
        <ele>1071</ele>
        <time>2010-01-01T00:32:20Z</time>
      </trkpt>
      <trkpt lat="45.06195" lon="3.21674">
        <ele>1074</ele>
        <time>2010-01-01T00:32:33Z</time>
      </trkpt>
      <trkpt lat="45.06201" lon="3.21708">
        <ele>1074</ele>
        <time>2010-01-01T00:32:38Z</time>
      </trkpt>
      <trkpt lat="45.06227" lon="3.21754">
        <ele>1069</ele>
        <time>2010-01-01T00:32:45Z</time>
      </trkpt>
      <trkpt lat="45.06319" lon="3.21818">
        <ele>1073</ele>
        <time>2010-01-01T00:33:04Z</time>
      </trkpt>
      <trkpt lat="45.06341" lon="3.21841">
        <ele>1073</ele>
        <time>2010-01-01T00:33:09Z</time>
      </trkpt>
      <trkpt lat="45.06349" lon="3.21863">
        <ele>1073</ele>
        <time>2010-01-01T00:33:12Z</time>
      </trkpt>
      <trkpt lat="45.06379" lon="3.21962">
        <ele>1072</ele>
        <time>2010-01-01T00:33:26Z</time>
      </trkpt>
      <trkpt lat="45.06403" lon="3.22">
        <ele>1072</ele>
        <time>2010-01-01T00:33:32Z</time>
      </trkpt>
      <trkpt lat="45.06493" lon="3.2209">
        <ele>1066</ele>
        <time>2010-01-01T00:33:52Z</time>
      </trkpt>
      <trkpt lat="45.06512" lon="3.22129">
        <ele>1071</ele>
        <time>2010-01-01T00:33:58Z</time>
      </trkpt>
      <trkpt lat="45.06512" lon="3.22168">
        <ele>1072</ele>
        <time>2010-01-01T00:34:03Z</time>
      </trkpt>
      <trkpt lat="45.06493" lon="3.22322">
        <ele>1073</ele>
        <time>2010-01-01T00:34:24Z</time>
      </trkpt>
      <trkpt lat="45.06487" lon="3.22442">
        <ele>1077</ele>
        <time>2010-01-01T00:34:39Z</time>
      </trkpt>
      <trkpt lat="45.06487" lon="3.22487">
        <ele>1077</ele>
        <time>2010-01-01T00:34:45Z</time>
      </trkpt>
      <trkpt lat="45.06493" lon="3.22577">
        <ele>1080</ele>
        <time>2010-01-01T00:34:57Z</time>
      </trkpt>
      <trkpt lat="45.06495" lon="3.22586">
        <ele>1081</ele>
        <time>2010-01-01T00:34:58Z</time>
      </trkpt>
      <trkpt lat="45.06495" lon="3.22597">
        <ele>1082</ele>
        <time>2010-01-01T00:34:59Z</time>
      </trkpt>
      <trkpt lat="45.06502" lon="3.22629">
        <ele>1085</ele>
        <time>2010-01-01T00:35:03Z</time>
      </trkpt>
      <trkpt lat="45.06506" lon="3.22713">
        <ele>1086</ele>
        <time>2010-01-01T00:35:14Z</time>
      </trkpt>
      <trkpt lat="45.06521" lon="3.22741">
        <ele>1088</ele>
        <time>2010-01-01T00:35:19Z</time>
      </trkpt>
      <trkpt lat="45.06525" lon="3.22801">
        <ele>1092</ele>
        <time>2010-01-01T00:35:26Z</time>
      </trkpt>
      <trkpt lat="45.06536" lon="3.22809">
        <ele>1092</ele>
        <time>2010-01-01T00:35:29Z</time>
      </trkpt>
      <trkpt lat="45.06547" lon="3.22831">
        <ele>1092</ele>
        <time>2010-01-01T00:35:32Z</time>
      </trkpt>
      <trkpt lat="45.06524" lon="3.22846">
        <ele>1091</ele>
        <time>2010-01-01T00:35:37Z</time>
      </trkpt>
      <trkpt lat="45.06519" lon="3.2285">
        <ele>1091</ele>
        <time>2010-01-01T00:35:38Z</time>
      </trkpt>
      <trkpt lat="45.06489" lon="3.22848">
        <ele>1090</ele>
        <time>2010-01-01T00:35:43Z</time>
      </trkpt>
      <trkpt lat="45.06485" lon="3.22884">
        <ele>1092</ele>
        <time>2010-01-01T00:35:48Z</time>
      </trkpt>
      <trkpt lat="45.06478" lon="3.22925">
        <ele>1093</ele>
        <time>2010-01-01T00:35:53Z</time>
      </trkpt>
      <trkpt lat="45.06469" lon="3.22983">
        <ele>1094</ele>
        <time>2010-01-01T00:36:01Z</time>
      </trkpt>
      <trkpt lat="45.06461" lon="3.23039">
        <ele>1094</ele>
        <time>2010-01-01T00:36:08Z</time>
      </trkpt>
      <trkpt lat="45.0645" lon="3.23101">
        <ele>1095</ele>
        <time>2010-01-01T00:36:16Z</time>
      </trkpt>
      <trkpt lat="45.06448" lon="3.23116">
        <ele>1096</ele>
        <time>2010-01-01T00:36:18Z</time>
      </trkpt>
      <trkpt lat="45.06394" lon="3.23352">
        <ele>1096</ele>
        <time>2010-01-01T00:36:50Z</time>
      </trkpt>
      <trkpt lat="45.06358" lon="3.2359">
        <ele>1099</ele>
        <time>2010-01-01T00:37:22Z</time>
      </trkpt>
      <trkpt lat="45.0636" lon="3.2364">
        <ele>1098</ele>
        <time>2010-01-01T00:37:28Z</time>
      </trkpt>
      <trkpt lat="45.06386" lon="3.23788">
        <ele>1103</ele>
        <time>2010-01-01T00:37:48Z</time>
      </trkpt>
      <trkpt lat="45.06379" lon="3.23841">
        <ele>1105</ele>
        <time>2010-01-01T00:37:55Z</time>
      </trkpt>
      <trkpt lat="45.06351" lon="3.23923">
        <ele>1106</ele>
        <time>2010-01-01T00:38:06Z</time>
      </trkpt>
      <trkpt lat="45.06304" lon="3.23871">
        <ele>1107</ele>
        <time>2010-01-01T00:38:17Z</time>
      </trkpt>
      <trkpt lat="45.0604" lon="3.23586">
        <ele>1086</ele>
        <time>2010-01-01T00:39:17Z</time>
      </trkpt>
      <trkpt lat="45.06004" lon="3.23534">
        <ele>1085</ele>
        <time>2010-01-01T00:39:27Z</time>
      </trkpt>
      <trkpt lat="45.05991" lon="3.23494">
        <ele>1088</ele>
        <time>2010-01-01T00:39:33Z</time>
      </trkpt>
      <trkpt lat="45.05987" lon="3.23451">
        <ele>1094</ele>
        <time>2010-01-01T00:39:38Z</time>
      </trkpt>
      <trkpt lat="45.05993" lon="3.23404">
        <ele>1095</ele>
        <time>2010-01-01T00:39:44Z</time>
      </trkpt>
      <trkpt lat="45.0601" lon="3.23339">
        <ele>1094</ele>
        <time>2010-01-01T00:39:53Z</time>
      </trkpt>
      <trkpt lat="45.06012" lon="3.23305">
        <ele>1095</ele>
        <time>2010-01-01T00:39:58Z</time>
      </trkpt>
      <trkpt lat="45.06008" lon="3.23273">
        <ele>1094</ele>
        <time>2010-01-01T00:40:02Z</time>
      </trkpt>
      <trkpt lat="45.06" lon="3.23243">
        <ele>1095</ele>
        <time>2010-01-01T00:40:06Z</time>
      </trkpt>
      <trkpt lat="45.05982" lon="3.23213">
        <ele>1095</ele>
        <time>2010-01-01T00:40:11Z</time>
      </trkpt>
      <trkpt lat="45.05927" lon="3.23155">
        <ele>1098</ele>
        <time>2010-01-01T00:40:24Z</time>
      </trkpt>
      <trkpt lat="45.05849" lon="3.23086">
        <ele>1106</ele>
        <time>2010-01-01T00:40:40Z</time>
      </trkpt>
      <trkpt lat="45.05315" lon="3.22612">
        <ele>1132</ele>
        <time>2010-01-01T00:42:35Z</time>
      </trkpt>
      <trkpt lat="45.05281" lon="3.22575">
        <ele>1131</ele>
        <time>2010-01-01T00:42:43Z</time>
      </trkpt>
      <trkpt lat="45.05257" lon="3.22539">
        <ele>1127</ele>
        <time>2010-01-01T00:42:49Z</time>
      </trkpt>
      <trkpt lat="45.05206" lon="3.2244">
        <ele>1123</ele>
        <time>2010-01-01T00:43:05Z</time>
      </trkpt>
      <trkpt lat="45.05156" lon="3.22382">
        <ele>1123</ele>
        <time>2010-01-01T00:43:17Z</time>
      </trkpt>
      <trkpt lat="45.05146" lon="3.22361">
        <ele>1125</ele>
        <time>2010-01-01T00:43:20Z</time>
      </trkpt>
      <trkpt lat="45.05139" lon="3.2232">
        <ele>1128</ele>
        <time>2010-01-01T00:43:25Z</time>
      </trkpt>
      <trkpt lat="45.05139" lon="3.22236">
        <ele>1130</ele>
        <time>2010-01-01T00:43:36Z</time>
      </trkpt>
      <trkpt lat="45.05135" lon="3.22176">
        <ele>1132</ele>
        <time>2010-01-01T00:43:44Z</time>
      </trkpt>
      <trkpt lat="45.05116" lon="3.22123">
        <ele>1131</ele>
        <time>2010-01-01T00:43:52Z</time>
      </trkpt>
      <trkpt lat="45.05098" lon="3.22095">
        <ele>1130</ele>
        <time>2010-01-01T00:43:56Z</time>
      </trkpt>
      <trkpt lat="45.0507" lon="3.22065">
        <ele>1129</ele>
        <time>2010-01-01T00:44:03Z</time>
      </trkpt>
      <trkpt lat="45.05032" lon="3.22045">
        <ele>1128</ele>
        <time>2010-01-01T00:44:10Z</time>
      </trkpt>
      <trkpt lat="45.04957" lon="3.22037">
        <ele>1129</ele>
        <time>2010-01-01T00:44:24Z</time>
      </trkpt>
      <trkpt lat="45.04826" lon="3.2203">
        <ele>1131</ele>
        <time>2010-01-01T00:44:48Z</time>
      </trkpt>
      <trkpt lat="45.04667" lon="3.2202">
        <ele>1134</ele>
        <time>2010-01-01T00:45:17Z</time>
      </trkpt>
      <trkpt lat="45.04628" lon="3.2203">
        <ele>1133</ele>
        <time>2010-01-01T00:45:24Z</time>
      </trkpt>
      <trkpt lat="45.04613" lon="3.22047">
        <ele>1132</ele>
        <time>2010-01-01T00:45:27Z</time>
      </trkpt>
      <trkpt lat="45.04607" lon="3.22067">
        <ele>1132</ele>
        <time>2010-01-01T00:45:30Z</time>
      </trkpt>
      <trkpt lat="45.04603" lon="3.22097">
        <ele>1131</ele>
        <time>2010-01-01T00:45:34Z</time>
      </trkpt>
      <trkpt lat="45.04603" lon="3.22232">
        <ele>1132</ele>
        <time>2010-01-01T00:45:51Z</time>
      </trkpt>
      <trkpt lat="45.04592" lon="3.22286">
        <ele>1135</ele>
        <time>2010-01-01T00:45:58Z</time>
      </trkpt>
      <trkpt lat="45.04545" lon="3.22402">
        <ele>1133</ele>
        <time>2010-01-01T00:46:16Z</time>
      </trkpt>
      <trkpt lat="45.04521" lon="3.22432">
        <ele>1132</ele>
        <time>2010-01-01T00:46:21Z</time>
      </trkpt>
      <trkpt lat="45.04478" lon="3.22468">
        <ele>1132</ele>
        <time>2010-01-01T00:46:31Z</time>
      </trkpt>
      <trkpt lat="45.04463" lon="3.22498">
        <ele>1135</ele>
        <time>2010-01-01T00:46:35Z</time>
      </trkpt>
      <trkpt lat="45.04455" lon="3.22528">
        <ele>1138</ele>
        <time>2010-01-01T00:46:39Z</time>
      </trkpt>
      <trkpt lat="45.04452" lon="3.22616">
        <ele>1142</ele>
        <time>2010-01-01T00:46:51Z</time>
      </trkpt>
      <trkpt lat="45.04444" lon="3.22644">
        <ele>1140</ele>
        <time>2010-01-01T00:46:55Z</time>
      </trkpt>
      <trkpt lat="45.04429" lon="3.22668">
        <ele>1140</ele>
        <time>2010-01-01T00:46:59Z</time>
      </trkpt>
      <trkpt lat="45.04414" lon="3.22678">
        <ele>1140</ele>
        <time>2010-01-01T00:47:02Z</time>
      </trkpt>
      <trkpt lat="45.04388" lon="3.22685">
        <ele>1145</ele>
        <time>2010-01-01T00:47:07Z</time>
      </trkpt>
      <trkpt lat="45.04371" lon="3.22676">
        <ele>1146</ele>
        <time>2010-01-01T00:47:10Z</time>
      </trkpt>
      <trkpt lat="45.04352" lon="3.22661">
        <ele>1148</ele>
        <time>2010-01-01T00:47:14Z</time>
      </trkpt>
      <trkpt lat="45.04332" lon="3.22625">
        <ele>1147</ele>
        <time>2010-01-01T00:47:20Z</time>
      </trkpt>
      <trkpt lat="45.04287" lon="3.22479">
        <ele>1144</ele>
        <time>2010-01-01T00:47:40Z</time>
      </trkpt>
      <trkpt lat="45.04246" lon="3.2241">
        <ele>1143</ele>
        <time>2010-01-01T00:47:52Z</time>
      </trkpt>
      <trkpt lat="45.04214" lon="3.22378">
        <ele>1140</ele>
        <time>2010-01-01T00:47:59Z</time>
      </trkpt>
      <trkpt lat="45.04167" lon="3.2235">
        <ele>1138</ele>
        <time>2010-01-01T00:48:08Z</time>
      </trkpt>
      <trkpt lat="45.04131" lon="3.22341">
        <ele>1141</ele>
        <time>2010-01-01T00:48:15Z</time>
      </trkpt>
      <trkpt lat="45.0409" lon="3.22341">
        <ele>1142</ele>
        <time>2010-01-01T00:48:22Z</time>
      </trkpt>
      <trkpt lat="45.04051" lon="3.2235">
        <ele>1142</ele>
        <time>2010-01-01T00:48:30Z</time>
      </trkpt>
      <trkpt lat="45.04019" lon="3.22374">
        <ele>1140</ele>
        <time>2010-01-01T00:48:36Z</time>
      </trkpt>
      <trkpt lat="45.03991" lon="3.22412">
        <ele>1138</ele>
        <time>2010-01-01T00:48:43Z</time>
      </trkpt>
      <trkpt lat="45.03903" lon="3.22644">
        <ele>1137</ele>
        <time>2010-01-01T00:49:17Z</time>
      </trkpt>
      <trkpt lat="45.0389" lon="3.22702">
        <ele>1137</ele>
        <time>2010-01-01T00:49:25Z</time>
      </trkpt>
      <trkpt lat="45.03867" lon="3.22869">
        <ele>1129</ele>
        <time>2010-01-01T00:49:47Z</time>
      </trkpt>
      <trkpt lat="45.03856" lon="3.2291">
        <ele>1124</ele>
        <time>2010-01-01T00:49:52Z</time>
      </trkpt>
      <trkpt lat="45.03843" lon="3.22932">
        <ele>1120</ele>
        <time>2010-01-01T00:49:56Z</time>
      </trkpt>
      <trkpt lat="45.03817" lon="3.22949">
        <ele>1118</ele>
        <time>2010-01-01T00:50:01Z</time>
      </trkpt>
      <trkpt lat="45.03768" lon="3.22942">
        <ele>1121</ele>
        <time>2010-01-01T00:50:10Z</time>
      </trkpt>
      <trkpt lat="45.03712" lon="3.22927">
        <ele>1120</ele>
        <time>2010-01-01T00:50:21Z</time>
      </trkpt>
      <trkpt lat="45.03674" lon="3.22908">
        <ele>1119</ele>
        <time>2010-01-01T00:50:28Z</time>
      </trkpt>
      <trkpt lat="45.03586" lon="3.22852">
        <ele>1111</ele>
        <time>2010-01-01T00:50:46Z</time>
      </trkpt>
      <trkpt lat="45.03508" lon="3.22779">
        <ele>1106</ele>
        <time>2010-01-01T00:51:02Z</time>
      </trkpt>
      <trkpt lat="45.03474" lon="3.22764">
        <ele>1102</ele>
        <time>2010-01-01T00:51:09Z</time>
      </trkpt>
      <trkpt lat="45.0344" lon="3.22777">
        <ele>1100</ele>
        <time>2010-01-01T00:51:15Z</time>
      </trkpt>
      <trkpt lat="45.03416" lon="3.22805">
        <ele>1097</ele>
        <time>2010-01-01T00:51:21Z</time>
      </trkpt>
      <trkpt lat="45.03401" lon="3.22854">
        <ele>1095</ele>
        <time>2010-01-01T00:51:28Z</time>
      </trkpt>
      <trkpt lat="45.03392" lon="3.22934">
        <ele>1093</ele>
        <time>2010-01-01T00:51:38Z</time>
      </trkpt>
      <trkpt lat="45.03386" lon="3.22953">
        <ele>1092</ele>
        <time>2010-01-01T00:51:41Z</time>
      </trkpt>
      <trkpt lat="45.03375" lon="3.22968">
        <ele>1091</ele>
        <time>2010-01-01T00:51:44Z</time>
      </trkpt>
      <trkpt lat="45.03358" lon="3.22974">
        <ele>1090</ele>
        <time>2010-01-01T00:51:47Z</time>
      </trkpt>
      <trkpt lat="45.03281" lon="3.22955">
        <ele>1077</ele>
        <time>2010-01-01T00:52:01Z</time>
      </trkpt>
      <trkpt lat="45.03264" lon="3.22957">
        <ele>1076</ele>
        <time>2010-01-01T00:52:04Z</time>
      </trkpt>
      <trkpt lat="45.03249" lon="3.22972">
        <ele>1076</ele>
        <time>2010-01-01T00:52:08Z</time>
      </trkpt>
      <trkpt lat="45.03221" lon="3.23056">
        <ele>1081</ele>
        <time>2010-01-01T00:52:20Z</time>
      </trkpt>
      <trkpt lat="45.0321" lon="3.23069">
        <ele>1081</ele>
        <time>2010-01-01T00:52:22Z</time>
      </trkpt>
      <trkpt lat="45.03191" lon="3.23075">
        <ele>1078</ele>
        <time>2010-01-01T00:52:26Z</time>
      </trkpt>
      <trkpt lat="45.03154" lon="3.23058">
        <ele>1074</ele>
        <time>2010-01-01T00:52:33Z</time>
      </trkpt>
      <trkpt lat="45.03038" lon="3.22897">
        <ele>1062</ele>
        <time>2010-01-01T00:53:02Z</time>
      </trkpt>
      <trkpt lat="45.02991" lon="3.22865">
        <ele>1058</ele>
        <time>2010-01-01T00:53:12Z</time>
      </trkpt>
      <trkpt lat="45.02963" lon="3.22859">
        <ele>1057</ele>
        <time>2010-01-01T00:53:17Z</time>
      </trkpt>
      <trkpt lat="45.02944" lon="3.22863">
        <ele>1058</ele>
        <time>2010-01-01T00:53:21Z</time>
      </trkpt>
      <trkpt lat="45.02798" lon="3.22925">
        <ele>1050</ele>
        <time>2010-01-01T00:53:48Z</time>
      </trkpt>
      <trkpt lat="45.02747" lon="3.22936">
        <ele>1048</ele>
        <time>2010-01-01T00:53:58Z</time>
      </trkpt>
      <trkpt lat="45.02667" lon="3.22919">
        <ele>1044</ele>
        <time>2010-01-01T00:54:12Z</time>
      </trkpt>
      <trkpt lat="45.02646" lon="3.22923">
        <ele>1042</ele>
        <time>2010-01-01T00:54:16Z</time>
      </trkpt>
      <trkpt lat="45.02624" lon="3.22951">
        <ele>1039</ele>
        <time>2010-01-01T00:54:22Z</time>
      </trkpt>
      <trkpt lat="45.02616" lon="3.23004">
        <ele>1036</ele>
        <time>2010-01-01T00:54:29Z</time>
      </trkpt>
      <trkpt lat="45.02596" lon="3.23052">
        <ele>1034</ele>
        <time>2010-01-01T00:54:36Z</time>
      </trkpt>
      <trkpt lat="45.02586" lon="3.23084">
        <ele>1032</ele>
        <time>2010-01-01T00:54:40Z</time>
      </trkpt>
      <trkpt lat="45.02581" lon="3.23116">
        <ele>1031</ele>
        <time>2010-01-01T00:54:45Z</time>
      </trkpt>
      <trkpt lat="45.02586" lon="3.23161">
        <ele>1029</ele>
        <time>2010-01-01T00:54:50Z</time>
      </trkpt>
      <trkpt lat="45.02594" lon="3.23189">
        <ele>1029</ele>
        <time>2010-01-01T00:54:54Z</time>
      </trkpt>
      <trkpt lat="45.02622" lon="3.23234">
        <ele>1026</ele>
        <time>2010-01-01T00:55:02Z</time>
      </trkpt>
      <trkpt lat="45.02663" lon="3.23251">
        <ele>1028</ele>
        <time>2010-01-01T00:55:10Z</time>
      </trkpt>
      <trkpt lat="45.02684" lon="3.23268">
        <ele>1028</ele>
        <time>2010-01-01T00:55:14Z</time>
      </trkpt>
      <trkpt lat="45.02695" lon="3.23294">
        <ele>1024</ele>
        <time>2010-01-01T00:55:18Z</time>
      </trkpt>
      <trkpt lat="45.02697" lon="3.23322">
        <ele>1019</ele>
        <time>2010-01-01T00:55:22Z</time>
      </trkpt>
      <trkpt lat="45.02695" lon="3.23341">
        <ele>1018</ele>
        <time>2010-01-01T00:55:24Z</time>
      </trkpt>
      <trkpt lat="45.02682" lon="3.23365">
        <ele>1020</ele>
        <time>2010-01-01T00:55:28Z</time>
      </trkpt>
      <trkpt lat="45.0265" lon="3.23391">
        <ele>1020</ele>
        <time>2010-01-01T00:55:35Z</time>
      </trkpt>
      <trkpt lat="45.02624" lon="3.23395">
        <ele>1018</ele>
        <time>2010-01-01T00:55:39Z</time>
      </trkpt>
      <trkpt lat="45.02534" lon="3.23359">
        <ele>1013</ele>
        <time>2010-01-01T00:55:57Z</time>
      </trkpt>
      <trkpt lat="45.02508" lon="3.23335">
        <ele>1012</ele>
        <time>2010-01-01T00:56:02Z</time>
      </trkpt>
      <trkpt lat="45.02455" lon="3.23245">
        <ele>1000</ele>
        <time>2010-01-01T00:56:17Z</time>
      </trkpt>
      <trkpt lat="45.02345" lon="3.23129">
        <ele>994</ele>
        <time>2010-01-01T00:56:42Z</time>
      </trkpt>
      <trkpt lat="45.02242" lon="3.2308">
        <ele>985</ele>
        <time>2010-01-01T00:57:02Z</time>
      </trkpt>
      <trkpt lat="45.02187" lon="3.2302">
        <ele>982</ele>
        <time>2010-01-01T00:57:15Z</time>
      </trkpt>
      <trkpt lat="45.02156" lon="3.22998">
        <ele>980</ele>
        <time>2010-01-01T00:57:21Z</time>
      </trkpt>
      <trkpt lat="45.02101" lon="3.22983">
        <ele>978</ele>
        <time>2010-01-01T00:57:31Z</time>
      </trkpt>
      <trkpt lat="45.02036" lon="3.22981">
        <ele>975</ele>
        <time>2010-01-01T00:57:43Z</time>
      </trkpt>
      <trkpt lat="45.0191" lon="3.22985">
        <ele>971</ele>
        <time>2010-01-01T00:58:06Z</time>
      </trkpt>
      <trkpt lat="45.0188" lon="3.22977">
        <ele>968</ele>
        <time>2010-01-01T00:58:11Z</time>
      </trkpt>
      <trkpt lat="45.01837" lon="3.22949">
        <ele>961</ele>
        <time>2010-01-01T00:58:20Z</time>
      </trkpt>
      <trkpt lat="45.01802" lon="3.22936">
        <ele>962</ele>
        <time>2010-01-01T00:58:27Z</time>
      </trkpt>
      <trkpt lat="45.01659" lon="3.22919">
        <ele>952</ele>
        <time>2010-01-01T00:58:53Z</time>
      </trkpt>
      <trkpt lat="45.01487" lon="3.22863">
        <ele>947</ele>
        <time>2010-01-01T00:59:25Z</time>
      </trkpt>
      <trkpt lat="45.01302" lon="3.22837">
        <ele>934</ele>
        <time>2010-01-01T00:59:59Z</time>
      </trkpt>
      <trkpt lat="45.01116" lon="3.22758">
        <ele>919</ele>
        <time>2010-01-01T01:00:34Z</time>
      </trkpt>
      <trkpt lat="45.01047" lon="3.22743">
        <ele>919</ele>
        <time>2010-01-01T01:00:47Z</time>
      </trkpt>
      <trkpt lat="45.0085" lon="3.22719">
        <ele>918</ele>
        <time>2010-01-01T01:01:23Z</time>
      </trkpt>
      <trkpt lat="45.00695" lon="3.22693">
        <ele>914</ele>
        <time>2010-01-01T01:01:51Z</time>
      </trkpt>
      <trkpt lat="45.00644" lon="3.22665">
        <ele>912</ele>
        <time>2010-01-01T01:02:01Z</time>
      </trkpt>
      <trkpt lat="45.00599" lon="3.22633">
        <ele>912</ele>
        <time>2010-01-01T01:02:10Z</time>
      </trkpt>
      <trkpt lat="45.00554" lon="3.22586">
        <ele>909</ele>
        <time>2010-01-01T01:02:20Z</time>
      </trkpt>
      <trkpt lat="45.0053" lon="3.22556">
        <ele>909</ele>
        <time>2010-01-01T01:02:26Z</time>
      </trkpt>
      <trkpt lat="45.00479" lon="3.22451">
        <ele>904</ele>
        <time>2010-01-01T01:02:43Z</time>
      </trkpt>
      <trkpt lat="45.0044" lon="3.22399">
        <ele>904</ele>
        <time>2010-01-01T01:02:52Z</time>
      </trkpt>
      <trkpt lat="45.00395" lon="3.22335">
        <ele>904</ele>
        <time>2010-01-01T01:03:04Z</time>
      </trkpt>
      <trkpt lat="45.00341" lon="3.22333">
        <ele>902</ele>
        <time>2010-01-01T01:03:14Z</time>
      </trkpt>
      <trkpt lat="45.00279" lon="3.22344">
        <ele>903</ele>
        <time>2010-01-01T01:03:25Z</time>
      </trkpt>
      <trkpt lat="45.00245" lon="3.22335">
        <ele>904</ele>
        <time>2010-01-01T01:03:31Z</time>
      </trkpt>
      <trkpt lat="45.00232" lon="3.22299">
        <ele>905</ele>
        <time>2010-01-01T01:03:37Z</time>
      </trkpt>
      <trkpt lat="45.00221" lon="3.22271">
        <ele>904</ele>
        <time>2010-01-01T01:03:41Z</time>
      </trkpt>
      <trkpt lat="45.00189" lon="3.22174">
        <ele>903</ele>
        <time>2010-01-01T01:03:55Z</time>
      </trkpt>
      <trkpt lat="45.00159" lon="3.2209">
        <ele>904</ele>
        <time>2010-01-01T01:04:07Z</time>
      </trkpt>
      <trkpt lat="45.0015" lon="3.22067">
        <ele>902</ele>
        <time>2010-01-01T01:04:10Z</time>
      </trkpt>
      <trkpt lat="45.00144" lon="3.22047">
        <ele>901</ele>
        <time>2010-01-01T01:04:13Z</time>
      </trkpt>
      <trkpt lat="45.0012" lon="3.21992">
        <ele>901</ele>
        <time>2010-01-01T01:04:21Z</time>
      </trkpt>
      <trkpt lat="45.00094" lon="3.21953">
        <ele>902</ele>
        <time>2010-01-01T01:04:28Z</time>
      </trkpt>
      <trkpt lat="45.00067" lon="3.21936">
        <ele>903</ele>
        <time>2010-01-01T01:04:34Z</time>
      </trkpt>
      <trkpt lat="45.00045" lon="3.21934">
        <ele>902</ele>
        <time>2010-01-01T01:04:37Z</time>
      </trkpt>
      <trkpt lat="45" lon="3.2194">
        <ele>899</ele>
        <time>2010-01-01T01:04:46Z</time>
      </trkpt>
      <trkpt lat="44.9997" lon="3.21932">
        <ele>898</ele>
        <time>2010-01-01T01:04:51Z</time>
      </trkpt>
      <trkpt lat="44.99933" lon="3.21897">
        <ele>900</ele>
        <time>2010-01-01T01:04:59Z</time>
      </trkpt>
      <trkpt lat="44.99916" lon="3.21867">
        <ele>899</ele>
        <time>2010-01-01T01:05:04Z</time>
      </trkpt>
      <trkpt lat="44.99895" lon="3.21803">
        <ele>895</ele>
        <time>2010-01-01T01:05:13Z</time>
      </trkpt>
      <trkpt lat="44.9988" lon="3.2176">
        <ele>892</ele>
        <time>2010-01-01T01:05:20Z</time>
      </trkpt>
      <trkpt lat="44.99865" lon="3.21711">
        <ele>888</ele>
        <time>2010-01-01T01:05:26Z</time>
      </trkpt>
      <trkpt lat="44.9983" lon="3.21593">
        <ele>885</ele>
        <time>2010-01-01T01:05:43Z</time>
      </trkpt>
      <trkpt lat="44.99781" lon="3.21496">
        <ele>877</ele>
        <time>2010-01-01T01:05:58Z</time>
      </trkpt>
      <trkpt lat="44.99702" lon="3.21397">
        <ele>869</ele>
        <time>2010-01-01T01:06:17Z</time>
      </trkpt>
      <trkpt lat="44.99655" lon="3.21365">
        <ele>866</ele>
        <time>2010-01-01T01:06:27Z</time>
      </trkpt>
      <trkpt lat="44.99569" lon="3.21333">
        <ele>860</ele>
        <time>2010-01-01T01:06:43Z</time>
      </trkpt>
      <trkpt lat="44.99556" lon="3.21311">
        <ele>860</ele>
        <time>2010-01-01T01:06:47Z</time>
      </trkpt>
      <trkpt lat="44.99556" lon="3.21288">
        <ele>858</ele>
        <time>2010-01-01T01:06:50Z</time>
      </trkpt>
      <trkpt lat="44.99564" lon="3.2126">
        <ele>855</ele>
        <time>2010-01-01T01:06:54Z</time>
      </trkpt>
      <trkpt lat="44.9959" lon="3.21226">
        <ele>855</ele>
        <time>2010-01-01T01:07:00Z</time>
      </trkpt>
      <trkpt lat="44.99614" lon="3.21206">
        <ele>854</ele>
        <time>2010-01-01T01:07:05Z</time>
      </trkpt>
      <trkpt lat="44.99665" lon="3.21187">
        <ele>853</ele>
        <time>2010-01-01T01:07:15Z</time>
      </trkpt>
      <trkpt lat="44.99725" lon="3.21123">
        <ele>847</ele>
        <time>2010-01-01T01:07:28Z</time>
      </trkpt>
      <trkpt lat="44.99725" lon="3.21088">
        <ele>847</ele>
        <time>2010-01-01T01:07:33Z</time>
      </trkpt>
      <trkpt lat="44.99712" lon="3.21063">
        <ele>851</ele>
        <time>2010-01-01T01:07:37Z</time>
      </trkpt>
      <trkpt lat="44.99682" lon="3.21048">
        <ele>852</ele>
        <time>2010-01-01T01:07:43Z</time>
      </trkpt>
      <trkpt lat="44.99618" lon="3.21033">
        <ele>856</ele>
        <time>2010-01-01T01:07:55Z</time>
      </trkpt>
      <trkpt lat="44.99599" lon="3.21018">
        <ele>859</ele>
        <time>2010-01-01T01:07:59Z</time>
      </trkpt>
      <trkpt lat="44.99592" lon="3.21005">
        <ele>860</ele>
        <time>2010-01-01T01:08:01Z</time>
      </trkpt>
      <trkpt lat="44.99582" lon="3.2097">
        <ele>859</ele>
        <time>2010-01-01T01:08:06Z</time>
      </trkpt>
      <trkpt lat="44.99582" lon="3.20947">
        <ele>858</ele>
        <time>2010-01-01T01:08:09Z</time>
      </trkpt>
      <trkpt lat="44.9962" lon="3.20786">
        <ele>842</ele>
        <time>2010-01-01T01:08:30Z</time>
      </trkpt>
      <trkpt lat="44.99642" lon="3.20696">
        <ele>838</ele>
        <time>2010-01-01T01:08:43Z</time>
      </trkpt>
      <trkpt lat="44.99659" lon="3.2061">
        <ele>836</ele>
        <time>2010-01-01T01:08:54Z</time>
      </trkpt>
      <trkpt lat="44.99652" lon="3.2053">
        <ele>834</ele>
        <time>2010-01-01T01:09:04Z</time>
      </trkpt>
      <trkpt lat="44.99661" lon="3.20507">
        <ele>836</ele>
        <time>2010-01-01T01:09:08Z</time>
      </trkpt>
      <trkpt lat="44.99685" lon="3.2047">
        <ele>838</ele>
        <time>2010-01-01T01:09:14Z</time>
      </trkpt>
      <trkpt lat="44.99693" lon="3.20442">
        <ele>834</ele>
        <time>2010-01-01T01:09:18Z</time>
      </trkpt>
      <trkpt lat="44.99689" lon="3.20417">
        <ele>832</ele>
        <time>2010-01-01T01:09:21Z</time>
      </trkpt>
      <trkpt lat="44.9965" lon="3.20393">
        <ele>832</ele>
        <time>2010-01-01T01:09:29Z</time>
      </trkpt>
      <trkpt lat="44.99642" lon="3.20372">
        <ele>832</ele>
        <time>2010-01-01T01:09:32Z</time>
      </trkpt>
      <trkpt lat="44.99642" lon="3.2032">
        <ele>828</ele>
        <time>2010-01-01T01:09:39Z</time>
      </trkpt>
      <trkpt lat="44.99652" lon="3.2023">
        <ele>825</ele>
        <time>2010-01-01T01:09:51Z</time>
      </trkpt>
      <trkpt lat="44.99674" lon="3.20118">
        <ele>818</ele>
        <time>2010-01-01T01:10:06Z</time>
      </trkpt>
      <trkpt lat="44.99564" lon="3.20217">
        <ele>818</ele>
        <time>2010-01-01T01:10:29Z</time>
      </trkpt>
      <trkpt lat="44.99541" lon="3.20247">
        <ele>816</ele>
        <time>2010-01-01T01:10:35Z</time>
      </trkpt>
      <trkpt lat="44.99464" lon="3.20419">
        <ele>809</ele>
        <time>2010-01-01T01:11:01Z</time>
      </trkpt>
      <trkpt lat="44.99444" lon="3.20445">
        <ele>808</ele>
        <time>2010-01-01T01:11:06Z</time>
      </trkpt>
      <trkpt lat="44.99423" lon="3.20455">
        <ele>810</ele>
        <time>2010-01-01T01:11:10Z</time>
      </trkpt>
      <trkpt lat="44.99305" lon="3.20472">
        <ele>805</ele>
        <time>2010-01-01T01:11:32Z</time>
      </trkpt>
      <trkpt lat="44.99251" lon="3.20498">
        <ele>807</ele>
        <time>2010-01-01T01:11:42Z</time>
      </trkpt>
      <trkpt lat="44.99191" lon="3.20541">
        <ele>805</ele>
        <time>2010-01-01T01:11:54Z</time>
      </trkpt>
      <trkpt lat="44.99064" lon="3.20629">
        <ele>800</ele>
        <time>2010-01-01T01:12:20Z</time>
      </trkpt>
      <trkpt lat="44.98803" lon="3.20807">
        <ele>793</ele>
        <time>2010-01-01T01:13:13Z</time>
      </trkpt>
      <trkpt lat="44.98773" lon="3.20842">
        <ele>793</ele>
        <time>2010-01-01T01:13:20Z</time>
      </trkpt>
      <trkpt lat="44.98719" lon="3.2093">
        <ele>794</ele>
        <time>2010-01-01T01:13:35Z</time>
      </trkpt>
      <trkpt lat="44.98708" lon="3.20947">
        <ele>793</ele>
        <time>2010-01-01T01:13:38Z</time>
      </trkpt>
      <trkpt lat="44.98627" lon="3.21071">
        <ele>786</ele>
        <time>2010-01-01T01:14:00Z</time>
      </trkpt>
      <trkpt lat="44.98549" lon="3.21138">
        <ele>782</ele>
        <time>2010-01-01T01:14:16Z</time>
      </trkpt>
      <trkpt lat="44.98517" lon="3.21155">
        <ele>780</ele>
        <time>2010-01-01T01:14:22Z</time>
      </trkpt>
      <trkpt lat="44.98496" lon="3.21157">
        <ele>779</ele>
        <time>2010-01-01T01:14:26Z</time>
      </trkpt>
      <trkpt lat="44.98412" lon="3.21136">
        <ele>777</ele>
        <time>2010-01-01T01:14:42Z</time>
      </trkpt>
      <trkpt lat="44.98367" lon="3.21138">
        <ele>779</ele>
        <time>2010-01-01T01:14:50Z</time>
      </trkpt>
      <trkpt lat="44.98305" lon="3.21161">
        <ele>774</ele>
        <time>2010-01-01T01:15:02Z</time>
      </trkpt>
      <trkpt lat="44.9829" lon="3.21174">
        <ele>773</ele>
        <time>2010-01-01T01:15:05Z</time>
      </trkpt>
      <trkpt lat="44.98281" lon="3.21189">
        <ele>772</ele>
        <time>2010-01-01T01:15:07Z</time>
      </trkpt>
      <trkpt lat="44.98277" lon="3.21204">
        <ele>771</ele>
        <time>2010-01-01T01:15:09Z</time>
      </trkpt>
      <trkpt lat="44.98266" lon="3.21211">
        <ele>770</ele>
        <time>2010-01-01T01:15:11Z</time>
      </trkpt>
      <trkpt lat="44.98258" lon="3.21211">
        <ele>770</ele>
        <time>2010-01-01T01:15:13Z</time>
      </trkpt>
      <trkpt lat="44.98189" lon="3.21174">
        <ele>767</ele>
        <time>2010-01-01T01:15:26Z</time>
      </trkpt>
      <trkpt lat="44.98077" lon="3.21118">
        <ele>773</ele>
        <time>2010-01-01T01:15:48Z</time>
      </trkpt>
      <trkpt lat="44.97987" lon="3.21084">
        <ele>772</ele>
        <time>2010-01-01T01:16:05Z</time>
      </trkpt>
      <trkpt lat="44.97931" lon="3.21065">
        <ele>771</ele>
        <time>2010-01-01T01:16:15Z</time>
      </trkpt>
      <trkpt lat="44.97901" lon="3.21069">
        <ele>773</ele>
        <time>2010-01-01T01:16:21Z</time>
      </trkpt>
      <trkpt lat="44.97846" lon="3.21108">
        <ele>781</ele>
        <time>2010-01-01T01:16:32Z</time>
      </trkpt>
      <trkpt lat="44.97805" lon="3.21159">
        <ele>788</ele>
        <time>2010-01-01T01:16:42Z</time>
      </trkpt>
      <trkpt lat="44.9779" lon="3.21168">
        <ele>789</ele>
        <time>2010-01-01T01:16:45Z</time>
      </trkpt>
      <trkpt lat="44.97781" lon="3.21163">
        <ele>788</ele>
        <time>2010-01-01T01:16:47Z</time>
      </trkpt>
      <trkpt lat="44.97753" lon="3.21123">
        <ele>782</ele>
        <time>2010-01-01T01:16:54Z</time>
      </trkpt>
      <trkpt lat="44.97734" lon="3.21112">
        <ele>781</ele>
        <time>2010-01-01T01:16:58Z</time>
      </trkpt>
      <trkpt lat="44.9771" lon="3.21108">
        <ele>782</ele>
        <time>2010-01-01T01:17:02Z</time>
      </trkpt>
      <trkpt lat="44.97668" lon="3.21108">
        <ele>782</ele>
        <time>2010-01-01T01:17:10Z</time>
      </trkpt>
      <trkpt lat="44.97646" lon="3.21116">
        <ele>783</ele>
        <time>2010-01-01T01:17:14Z</time>
      </trkpt>
      <trkpt lat="44.97629" lon="3.21131">
        <ele>784</ele>
        <time>2010-01-01T01:17:18Z</time>
      </trkpt>
      <trkpt lat="44.97599" lon="3.21196">
        <ele>793</ele>
        <time>2010-01-01T01:17:28Z</time>
      </trkpt>
      <trkpt lat="44.97558" lon="3.21245">
        <ele>794</ele>
        <time>2010-01-01T01:17:37Z</time>
      </trkpt>
      <trkpt lat="44.97535" lon="3.21305">
        <ele>792</ele>
        <time>2010-01-01T01:17:46Z</time>
      </trkpt>
      <trkpt lat="44.97535" lon="3.2138">
        <ele>790</ele>
        <time>2010-01-01T01:17:56Z</time>
      </trkpt>
      <trkpt lat="44.97573" lon="3.2147">
        <ele>792</ele>
        <time>2010-01-01T01:18:09Z</time>
      </trkpt>
      <trkpt lat="44.97577" lon="3.21522">
        <ele>793</ele>
        <time>2010-01-01T01:18:16Z</time>
      </trkpt>
      <trkpt lat="44.97558" lon="3.21642">
        <ele>799</ele>
        <time>2010-01-01T01:18:32Z</time>
      </trkpt>
      <trkpt lat="44.97528" lon="3.21717">
        <ele>797</ele>
        <time>2010-01-01T01:18:43Z</time>
      </trkpt>
      <trkpt lat="44.97517" lon="3.21769">
        <ele>800</ele>
        <time>2010-01-01T01:18:50Z</time>
      </trkpt>
      <trkpt lat="44.97522" lon="3.21839">
        <ele>801</ele>
        <time>2010-01-01T01:18:59Z</time>
      </trkpt>
      <trkpt lat="44.97526" lon="3.21895">
        <ele>809</ele>
        <time>2010-01-01T01:19:06Z</time>
      </trkpt>
      <trkpt lat="44.97524" lon="3.21919">
        <ele>811</ele>
        <time>2010-01-01T01:19:09Z</time>
      </trkpt>
      <trkpt lat="44.97477" lon="3.22013">
        <ele>805</ele>
        <time>2010-01-01T01:19:24Z</time>
      </trkpt>
      <trkpt lat="44.97468" lon="3.22071">
        <ele>809</ele>
        <time>2010-01-01T01:19:32Z</time>
      </trkpt>
      <trkpt lat="44.97464" lon="3.22157">
        <ele>811</ele>
        <time>2010-01-01T01:19:43Z</time>
      </trkpt>
      <trkpt lat="44.97455" lon="3.22202">
        <ele>811</ele>
        <time>2010-01-01T01:19:49Z</time>
      </trkpt>
      <trkpt lat="44.97356" lon="3.22436">
        <ele>810</ele>
        <time>2010-01-01T01:20:24Z</time>
      </trkpt>
      <trkpt lat="44.97331" lon="3.22524">
        <ele>815</ele>
        <time>2010-01-01T01:20:36Z</time>
      </trkpt>
      <trkpt lat="44.97298" lon="3.2267">
        <ele>824</ele>
        <time>2010-01-01T01:20:56Z</time>
      </trkpt>
      <trkpt lat="44.97292" lon="3.22734">
        <ele>824</ele>
        <time>2010-01-01T01:21:04Z</time>
      </trkpt>
      <trkpt lat="44.97296" lon="3.22764">
        <ele>823</ele>
        <time>2010-01-01T01:21:08Z</time>
      </trkpt>
      <trkpt lat="44.97311" lon="3.22816">
        <ele>822</ele>
        <time>2010-01-01T01:21:15Z</time>
      </trkpt>
      <trkpt lat="44.97309" lon="3.22829">
        <ele>820</ele>
        <time>2010-01-01T01:21:17Z</time>
      </trkpt>
      <trkpt lat="44.97288" lon="3.22856">
        <ele>818</ele>
        <time>2010-01-01T01:21:22Z</time>
      </trkpt>
      <trkpt lat="44.97232" lon="3.22876">
        <ele>823</ele>
        <time>2010-01-01T01:21:33Z</time>
      </trkpt>
      <trkpt lat="44.97208" lon="3.2291">
        <ele>825</ele>
        <time>2010-01-01T01:21:39Z</time>
      </trkpt>
      <trkpt lat="44.9714" lon="3.23052">
        <ele>824</ele>
        <time>2010-01-01T01:22:01Z</time>
      </trkpt>
      <trkpt lat="44.97125" lon="3.23069">
        <ele>826</ele>
        <time>2010-01-01T01:22:05Z</time>
      </trkpt>
      <trkpt lat="44.9706" lon="3.23116">
        <ele>826</ele>
        <time>2010-01-01T01:22:18Z</time>
      </trkpt>
      <trkpt lat="44.97039" lon="3.2315">
        <ele>824</ele>
        <time>2010-01-01T01:22:24Z</time>
      </trkpt>
      <trkpt lat="44.97013" lon="3.23277">
        <ele>825</ele>
        <time>2010-01-01T01:22:41Z</time>
      </trkpt>
      <trkpt lat="44.96998" lon="3.23534">
        <ele>835</ele>
        <time>2010-01-01T01:23:14Z</time>
      </trkpt>
      <trkpt lat="44.96992" lon="3.23552">
        <ele>835</ele>
        <time>2010-01-01T01:23:17Z</time>
      </trkpt>
      <trkpt lat="44.96962" lon="3.2358">
        <ele>834</ele>
        <time>2010-01-01T01:23:23Z</time>
      </trkpt>
      <trkpt lat="44.96944" lon="3.23586">
        <ele>835</ele>
        <time>2010-01-01T01:23:26Z</time>
      </trkpt>
      <trkpt lat="44.96917" lon="3.2358">
        <ele>834</ele>
        <time>2010-01-01T01:23:31Z</time>
      </trkpt>
      <trkpt lat="44.96865" lon="3.23558">
        <ele>834</ele>
        <time>2010-01-01T01:23:41Z</time>
      </trkpt>
      <trkpt lat="44.9685" lon="3.23558">
        <ele>833</ele>
        <time>2010-01-01T01:23:44Z</time>
      </trkpt>
      <trkpt lat="44.96756" lon="3.2338">
        <ele>823</ele>
        <time>2010-01-01T01:24:13Z</time>
      </trkpt>
      <trkpt lat="44.96711" lon="3.23333">
        <ele>829</ele>
        <time>2010-01-01T01:24:23Z</time>
      </trkpt>
      <trkpt lat="44.9662" lon="3.23258">
        <ele>831</ele>
        <time>2010-01-01T01:24:42Z</time>
      </trkpt>
      <trkpt lat="44.96582" lon="3.23256">
        <ele>830</ele>
        <time>2010-01-01T01:24:49Z</time>
      </trkpt>
      <trkpt lat="44.96479" lon="3.23258">
        <ele>837</ele>
        <time>2010-01-01T01:25:08Z</time>
      </trkpt>
      <trkpt lat="44.96348" lon="3.23245">
        <ele>831</ele>
        <time>2010-01-01T01:25:31Z</time>
      </trkpt>
      <trkpt lat="44.96099" lon="3.2326">
        <ele>803</ele>
        <time>2010-01-01T01:26:17Z</time>
      </trkpt>
      <trkpt lat="44.96078" lon="3.23251">
        <ele>802</ele>
        <time>2010-01-01T01:26:21Z</time>
      </trkpt>
      <trkpt lat="44.96028" lon="3.23204">
        <ele>801</ele>
        <time>2010-01-01T01:26:32Z</time>
      </trkpt>
      <trkpt lat="44.95998" lon="3.23189">
        <ele>798</ele>
        <time>2010-01-01T01:26:37Z</time>
      </trkpt>
      <trkpt lat="44.9594" lon="3.23189">
        <ele>799</ele>
        <time>2010-01-01T01:26:48Z</time>
      </trkpt>
      <trkpt lat="44.9585" lon="3.23195">
        <ele>790</ele>
        <time>2010-01-01T01:27:04Z</time>
      </trkpt>
      <trkpt lat="44.95833" lon="3.23204">
        <ele>786</ele>
        <time>2010-01-01T01:27:08Z</time>
      </trkpt>
      <trkpt lat="44.95824" lon="3.23219">
        <ele>785</ele>
        <time>2010-01-01T01:27:10Z</time>
      </trkpt>
      <trkpt lat="44.95803" lon="3.23326">
        <ele>782</ele>
        <time>2010-01-01T01:27:25Z</time>
      </trkpt>
      <trkpt lat="44.95775" lon="3.23397">
        <ele>775</ele>
        <time>2010-01-01T01:27:35Z</time>
      </trkpt>
      <trkpt lat="44.9576" lon="3.23412">
        <ele>774</ele>
        <time>2010-01-01T01:27:38Z</time>
      </trkpt>
      <trkpt lat="44.95721" lon="3.2341">
        <ele>775</ele>
        <time>2010-01-01T01:27:45Z</time>
      </trkpt>
      <trkpt lat="44.95706" lon="3.23401">
        <ele>783</ele>
        <time>2010-01-01T01:27:48Z</time>
      </trkpt>
      <trkpt lat="44.95698" lon="3.23382">
        <ele>787</ele>
        <time>2010-01-01T01:27:51Z</time>
      </trkpt>
      <trkpt lat="44.95698" lon="3.2329">
        <ele>787</ele>
        <time>2010-01-01T01:28:03Z</time>
      </trkpt>
      <trkpt lat="44.95685" lon="3.23206">
        <ele>786</ele>
        <time>2010-01-01T01:28:14Z</time>
      </trkpt>
      <trkpt lat="44.95674" lon="3.23131">
        <ele>789</ele>
        <time>2010-01-01T01:28:24Z</time>
      </trkpt>
      <trkpt lat="44.95685" lon="3.23035">
        <ele>795</ele>
        <time>2010-01-01T01:28:37Z</time>
      </trkpt>
      <trkpt lat="44.95693" lon="3.22994">
        <ele>796</ele>
        <time>2010-01-01T01:28:42Z</time>
      </trkpt>
      <trkpt lat="44.95726" lon="3.22934">
        <ele>797</ele>
        <time>2010-01-01T01:28:52Z</time>
      </trkpt>
      <trkpt lat="44.95732" lon="3.22904">
        <ele>799</ele>
        <time>2010-01-01T01:28:56Z</time>
      </trkpt>
      <trkpt lat="44.9573" lon="3.22846">
        <ele>804</ele>
        <time>2010-01-01T01:29:03Z</time>
      </trkpt>
      <trkpt lat="44.95719" lon="3.22805">
        <ele>807</ele>
        <time>2010-01-01T01:29:09Z</time>
      </trkpt>
      <trkpt lat="44.95711" lon="3.22775">
        <ele>809</ele>
        <time>2010-01-01T01:29:13Z</time>
      </trkpt>
      <trkpt lat="44.957" lon="3.22747">
        <ele>811</ele>
        <time>2010-01-01T01:29:17Z</time>
      </trkpt>
      <trkpt lat="44.95687" lon="3.22732">
        <ele>812</ele>
        <time>2010-01-01T01:29:20Z</time>
      </trkpt>
      <trkpt lat="44.95681" lon="3.2273">
        <ele>812</ele>
        <time>2010-01-01T01:29:21Z</time>
      </trkpt>
      <trkpt lat="44.95668" lon="3.22736">
        <ele>810</ele>
        <time>2010-01-01T01:29:24Z</time>
      </trkpt>
      <trkpt lat="44.95642" lon="3.22814">
        <ele>806</ele>
        <time>2010-01-01T01:29:35Z</time>
      </trkpt>
      <trkpt lat="44.95614" lon="3.22921">
        <ele>807</ele>
        <time>2010-01-01T01:29:50Z</time>
      </trkpt>
      <trkpt lat="44.95586" lon="3.22953">
        <ele>806</ele>
        <time>2010-01-01T01:29:56Z</time>
      </trkpt>
      <trkpt lat="44.95556" lon="3.2297">
        <ele>796</ele>
        <time>2010-01-01T01:30:02Z</time>
      </trkpt>
      <trkpt lat="44.95537" lon="3.23037">
        <ele>805</ele>
        <time>2010-01-01T01:30:11Z</time>
      </trkpt>
      <trkpt lat="44.95522" lon="3.23065">
        <ele>804</ele>
        <time>2010-01-01T01:30:16Z</time>
      </trkpt>
      <trkpt lat="44.95442" lon="3.23157">
        <ele>799</ele>
        <time>2010-01-01T01:30:35Z</time>
      </trkpt>
      <trkpt lat="44.95384" lon="3.23187">
        <ele>785</ele>
        <time>2010-01-01T01:30:46Z</time>
      </trkpt>
      <trkpt lat="44.95363" lon="3.23243">
        <ele>796</ele>
        <time>2010-01-01T01:30:54Z</time>
      </trkpt>
      <trkpt lat="44.9535" lon="3.2326">
        <ele>798</ele>
        <time>2010-01-01T01:30:57Z</time>
      </trkpt>
      <trkpt lat="44.95333" lon="3.23251">
        <ele>795</ele>
        <time>2010-01-01T01:31:01Z</time>
      </trkpt>
      <trkpt lat="44.95311" lon="3.23219">
        <ele>784</ele>
        <time>2010-01-01T01:31:06Z</time>
      </trkpt>
      <trkpt lat="44.95299" lon="3.23213">
        <ele>782</ele>
        <time>2010-01-01T01:31:09Z</time>
      </trkpt>
      <trkpt lat="44.95245" lon="3.23225">
        <ele>785</ele>
        <time>2010-01-01T01:31:19Z</time>
      </trkpt>
      <trkpt lat="44.95211" lon="3.23225">
        <ele>778</ele>
        <time>2010-01-01T01:31:25Z</time>
      </trkpt>
      <trkpt lat="44.95131" lon="3.23277">
        <ele>778</ele>
        <time>2010-01-01T01:31:41Z</time>
      </trkpt>
      <trkpt lat="44.95101" lon="3.23322">
        <ele>783</ele>
        <time>2010-01-01T01:31:49Z</time>
      </trkpt>
      <trkpt lat="44.95058" lon="3.23322">
        <ele>771</ele>
        <time>2010-01-01T01:31:57Z</time>
      </trkpt>
      <trkpt lat="44.94962" lon="3.23363">
        <ele>763</ele>
        <time>2010-01-01T01:32:15Z</time>
      </trkpt>
      <trkpt lat="44.949" lon="3.23395">
        <ele>760</ele>
        <time>2010-01-01T01:32:27Z</time>
      </trkpt>
      <trkpt lat="44.94854" lon="3.23429">
        <ele>759</ele>
        <time>2010-01-01T01:32:36Z</time>
      </trkpt>
      <trkpt lat="44.9482" lon="3.23466">
        <ele>764</ele>
        <time>2010-01-01T01:32:44Z</time>
      </trkpt>
      <trkpt lat="44.94781" lon="3.23492">
        <ele>761</ele>
        <time>2010-01-01T01:32:52Z</time>
      </trkpt>
      <trkpt lat="44.94749" lon="3.23526">
        <ele>764</ele>
        <time>2010-01-01T01:32:59Z</time>
      </trkpt>
      <trkpt lat="44.94678" lon="3.23528">
        <ele>757</ele>
        <time>2010-01-01T01:33:12Z</time>
      </trkpt>
      <trkpt lat="44.94672" lon="3.23462">
        <ele>743</ele>
        <time>2010-01-01T01:33:21Z</time>
      </trkpt>
      <trkpt lat="44.9467" lon="3.23451">
        <ele>742</ele>
        <time>2010-01-01T01:33:22Z</time>
      </trkpt>
      <trkpt lat="44.94663" lon="3.23423">
        <ele>741</ele>
        <time>2010-01-01T01:33:26Z</time>
      </trkpt>
      <trkpt lat="44.94653" lon="3.23406">
        <ele>742</ele>
        <time>2010-01-01T01:33:29Z</time>
      </trkpt>
      <trkpt lat="44.94621" lon="3.23384">
        <ele>745</ele>
        <time>2010-01-01T01:33:35Z</time>
      </trkpt>
      <trkpt lat="44.94339" lon="3.23245">
        <ele>769</ele>
        <time>2010-01-01T01:34:30Z</time>
      </trkpt>
      <trkpt lat="44.94247" lon="3.23172">
        <ele>781</ele>
        <time>2010-01-01T01:34:49Z</time>
      </trkpt>
      <trkpt lat="44.94185" lon="3.23148">
        <ele>779</ele>
        <time>2010-01-01T01:35:01Z</time>
      </trkpt>
      <trkpt lat="44.94127" lon="3.2314">
        <ele>773</ele>
        <time>2010-01-01T01:35:11Z</time>
      </trkpt>
      <trkpt lat="44.94045" lon="3.23088">
        <ele>784</ele>
        <time>2010-01-01T01:35:27Z</time>
      </trkpt>
      <trkpt lat="44.93962" lon="3.23112">
        <ele>772</ele>
        <time>2010-01-01T01:35:43Z</time>
      </trkpt>
      <trkpt lat="44.9388" lon="3.23185">
        <ele>758</ele>
        <time>2010-01-01T01:36:00Z</time>
      </trkpt>
      <trkpt lat="44.9382" lon="3.23189">
        <ele>761</ele>
        <time>2010-01-01T01:36:11Z</time>
      </trkpt>
      <trkpt lat="44.93762" lon="3.23146">
        <ele>766</ele>
        <time>2010-01-01T01:36:23Z</time>
      </trkpt>
      <trkpt lat="44.93732" lon="3.23125">
        <ele>765</ele>
        <time>2010-01-01T01:36:29Z</time>
      </trkpt>
      <trkpt lat="44.93698" lon="3.23086">
        <ele>766</ele>
        <time>2010-01-01T01:36:37Z</time>
      </trkpt>
      <trkpt lat="44.93683" lon="3.23084">
        <ele>765</ele>
        <time>2010-01-01T01:36:40Z</time>
      </trkpt>
      <trkpt lat="44.93657" lon="3.23101">
        <ele>769</ele>
        <time>2010-01-01T01:36:45Z</time>
      </trkpt>
      <trkpt lat="44.93636" lon="3.23148">
        <ele>773</ele>
        <time>2010-01-01T01:36:53Z</time>
      </trkpt>
      <trkpt lat="44.93614" lon="3.23161">
        <ele>776</ele>
        <time>2010-01-01T01:36:57Z</time>
      </trkpt>
      <trkpt lat="44.93595" lon="3.23161">
        <ele>781</ele>
        <time>2010-01-01T01:37:00Z</time>
      </trkpt>
      <trkpt lat="44.93509" lon="3.2312">
        <ele>793</ele>
        <time>2010-01-01T01:37:17Z</time>
      </trkpt>
      <trkpt lat="44.934" lon="3.23084">
        <ele>808</ele>
        <time>2010-01-01T01:37:37Z</time>
      </trkpt>
      <trkpt lat="44.93301" lon="3.23067">
        <ele>807</ele>
        <time>2010-01-01T01:37:55Z</time>
      </trkpt>
      <trkpt lat="44.93232" lon="3.23065">
        <ele>805</ele>
        <time>2010-01-01T01:38:08Z</time>
      </trkpt>
      <trkpt lat="44.93207" lon="3.23054">
        <ele>808</ele>
        <time>2010-01-01T01:38:13Z</time>
      </trkpt>
      <trkpt lat="44.93209" lon="3.23043">
        <ele>811</ele>
        <time>2010-01-01T01:38:14Z</time>
      </trkpt>
      <trkpt lat="44.93215" lon="3.23039">
        <ele>812</ele>
        <time>2010-01-01T01:38:15Z</time>
      </trkpt>
      <trkpt lat="44.93243" lon="3.23043">
        <ele>812</ele>
        <time>2010-01-01T01:38:21Z</time>
      </trkpt>
      <trkpt lat="44.93382" lon="3.23022">
        <ele>825</ele>
        <time>2010-01-01T01:38:46Z</time>
      </trkpt>
      <trkpt lat="44.93485" lon="3.23013">
        <ele>829</ele>
        <time>2010-01-01T01:39:05Z</time>
      </trkpt>
      <trkpt lat="44.93503" lon="3.22996">
        <ele>830</ele>
        <time>2010-01-01T01:39:09Z</time>
      </trkpt>
      <trkpt lat="44.93505" lon="3.22972">
        <ele>830</ele>
        <time>2010-01-01T01:39:12Z</time>
      </trkpt>
      <trkpt lat="44.9349" lon="3.22878">
        <ele>836</ele>
        <time>2010-01-01T01:39:24Z</time>
      </trkpt>
      <trkpt lat="44.93479" lon="3.22852">
        <ele>840</ele>
        <time>2010-01-01T01:39:28Z</time>
      </trkpt>
      <trkpt lat="44.93473" lon="3.22852">
        <ele>842</ele>
        <time>2010-01-01T01:39:29Z</time>
      </trkpt>
      <trkpt lat="44.93466" lon="3.22861">
        <ele>843</ele>
        <time>2010-01-01T01:39:31Z</time>
      </trkpt>
      <trkpt lat="44.93475" lon="3.22927">
        <ele>840</ele>
        <time>2010-01-01T01:39:40Z</time>
      </trkpt>
      <trkpt lat="44.93466" lon="3.22951">
        <ele>841</ele>
        <time>2010-01-01T01:39:43Z</time>
      </trkpt>
      <trkpt lat="44.93449" lon="3.22955">
        <ele>843</ele>
        <time>2010-01-01T01:39:46Z</time>
      </trkpt>
      <trkpt lat="44.93335" lon="3.22942">
        <ele>857</ele>
        <time>2010-01-01T01:40:07Z</time>
      </trkpt>
      <trkpt lat="44.93279" lon="3.22925">
        <ele>860</ele>
        <time>2010-01-01T01:40:17Z</time>
      </trkpt>
      <trkpt lat="44.93129" lon="3.22852">
        <ele>873</ele>
        <time>2010-01-01T01:40:46Z</time>
      </trkpt>
      <trkpt lat="44.93026" lon="3.22865">
        <ele>876</ele>
        <time>2010-01-01T01:41:05Z</time>
      </trkpt>
      <trkpt lat="44.92921" lon="3.22833">
        <ele>884</ele>
        <time>2010-01-01T01:41:25Z</time>
      </trkpt>
      <trkpt lat="44.92904" lon="3.22822">
        <ele>885</ele>
        <time>2010-01-01T01:41:28Z</time>
      </trkpt>
      <trkpt lat="44.92882" lon="3.22775">
        <ele>893</ele>
        <time>2010-01-01T01:41:35Z</time>
      </trkpt>
      <trkpt lat="44.92861" lon="3.22749">
        <ele>896</ele>
        <time>2010-01-01T01:41:40Z</time>
      </trkpt>
      <trkpt lat="44.92844" lon="3.22734">
        <ele>897</ele>
        <time>2010-01-01T01:41:44Z</time>
      </trkpt>
      <trkpt lat="44.92831" lon="3.22741">
        <ele>896</ele>
        <time>2010-01-01T01:41:47Z</time>
      </trkpt>
      <trkpt lat="44.9282" lon="3.22762">
        <ele>895</ele>
        <time>2010-01-01T01:41:50Z</time>
      </trkpt>
      <trkpt lat="44.92805" lon="3.22775">
        <ele>894</ele>
        <time>2010-01-01T01:41:53Z</time>
      </trkpt>
      <trkpt lat="44.9279" lon="3.22775">
        <ele>897</ele>
        <time>2010-01-01T01:41:56Z</time>
      </trkpt>
      <trkpt lat="44.92745" lon="3.22751">
        <ele>904</ele>
        <time>2010-01-01T01:42:05Z</time>
      </trkpt>
      <trkpt lat="44.92739" lon="3.22736">
        <ele>907</ele>
        <time>2010-01-01T01:42:07Z</time>
      </trkpt>
      <trkpt lat="44.92743" lon="3.22726">
        <ele>908</ele>
        <time>2010-01-01T01:42:08Z</time>
      </trkpt>
      <trkpt lat="44.92773" lon="3.22715">
        <ele>908</ele>
        <time>2010-01-01T01:42:14Z</time>
      </trkpt>
      <trkpt lat="44.92786" lon="3.22693">
        <ele>909</ele>
        <time>2010-01-01T01:42:18Z</time>
      </trkpt>
      <trkpt lat="44.92801" lon="3.22616">
        <ele>913</ele>
        <time>2010-01-01T01:42:28Z</time>
      </trkpt>
      <trkpt lat="44.92801" lon="3.22569">
        <ele>916</ele>
        <time>2010-01-01T01:42:34Z</time>
      </trkpt>
      <trkpt lat="44.92775" lon="3.2252">
        <ele>923</ele>
        <time>2010-01-01T01:42:42Z</time>
      </trkpt>
      <trkpt lat="44.92743" lon="3.22462">
        <ele>927</ele>
        <time>2010-01-01T01:42:51Z</time>
      </trkpt>
      <trkpt lat="44.92732" lon="3.22427">
        <ele>926</ele>
        <time>2010-01-01T01:42:56Z</time>
      </trkpt>
      <trkpt lat="44.92771" lon="3.22361">
        <ele>928</ele>
        <time>2010-01-01T01:43:07Z</time>
      </trkpt>
      <trkpt lat="44.9279" lon="3.22311">
        <ele>931</ele>
        <time>2010-01-01T01:43:15Z</time>
      </trkpt>
      <trkpt lat="44.92784" lon="3.22296">
        <ele>932</ele>
        <time>2010-01-01T01:43:17Z</time>
      </trkpt>
      <trkpt lat="44.92713" lon="3.22294">
        <ele>938</ele>
        <time>2010-01-01T01:43:30Z</time>
      </trkpt>
      <trkpt lat="44.92702" lon="3.22281">
        <ele>939</ele>
        <time>2010-01-01T01:43:32Z</time>
      </trkpt>
      <trkpt lat="44.92707" lon="3.22266">
        <ele>941</ele>
        <time>2010-01-01T01:43:34Z</time>
      </trkpt>
      <trkpt lat="44.92722" lon="3.22251">
        <ele>942</ele>
        <time>2010-01-01T01:43:38Z</time>
      </trkpt>
      <trkpt lat="44.92724" lon="3.22234">
        <ele>943</ele>
        <time>2010-01-01T01:43:40Z</time>
      </trkpt>
      <trkpt lat="44.92696" lon="3.22196">
        <ele>943</ele>
        <time>2010-01-01T01:43:47Z</time>
      </trkpt>
      <trkpt lat="44.92664" lon="3.2217">
        <ele>946</ele>
        <time>2010-01-01T01:43:54Z</time>
      </trkpt>
      <trkpt lat="44.92651" lon="3.22163">
        <ele>947</ele>
        <time>2010-01-01T01:43:56Z</time>
      </trkpt>
      <trkpt lat="44.92621" lon="3.22142">
        <ele>948</ele>
        <time>2010-01-01T01:44:02Z</time>
      </trkpt>
      <trkpt lat="44.92595" lon="3.22093">
        <ele>949</ele>
        <time>2010-01-01T01:44:10Z</time>
      </trkpt>
      <trkpt lat="44.92578" lon="3.22056">
        <ele>950</ele>
        <time>2010-01-01T01:44:16Z</time>
      </trkpt>
      <trkpt lat="44.92552" lon="3.2203">
        <ele>951</ele>
        <time>2010-01-01T01:44:22Z</time>
      </trkpt>
      <trkpt lat="44.92543" lon="3.22022">
        <ele>951</ele>
        <time>2010-01-01T01:44:24Z</time>
      </trkpt>
      <trkpt lat="44.92516" lon="3.21985">
        <ele>951</ele>
        <time>2010-01-01T01:44:31Z</time>
      </trkpt>
      <trkpt lat="44.92449" lon="3.2185">
        <ele>951</ele>
        <time>2010-01-01T01:44:52Z</time>
      </trkpt>
      <trkpt lat="44.92428" lon="3.21751">
        <ele>950</ele>
        <time>2010-01-01T01:45:05Z</time>
      </trkpt>
      <trkpt lat="44.92372" lon="3.21685">
        <ele>952</ele>
        <time>2010-01-01T01:45:18Z</time>
      </trkpt>
      <trkpt lat="44.92402" lon="3.21595">
        <ele>953</ele>
        <time>2010-01-01T01:45:31Z</time>
      </trkpt>
      <trkpt lat="44.9244" lon="3.21483">
        <ele>949</ele>
        <time>2010-01-01T01:45:47Z</time>
      </trkpt>
      <trkpt lat="44.92458" lon="3.21412">
        <ele>946</ele>
        <time>2010-01-01T01:45:57Z</time>
      </trkpt>
      <trkpt lat="44.92468" lon="3.21359">
        <ele>948</ele>
        <time>2010-01-01T01:46:04Z</time>
      </trkpt>
      <trkpt lat="44.92464" lon="3.2132">
        <ele>951</ele>
        <time>2010-01-01T01:46:09Z</time>
      </trkpt>
      <trkpt lat="44.92458" lon="3.21281">
        <ele>955</ele>
        <time>2010-01-01T01:46:14Z</time>
      </trkpt>
      <trkpt lat="44.92488" lon="3.21178">
        <ele>957</ele>
        <time>2010-01-01T01:46:29Z</time>
      </trkpt>
      <trkpt lat="44.92494" lon="3.21127">
        <ele>954</ele>
        <time>2010-01-01T01:46:35Z</time>
      </trkpt>
      <trkpt lat="44.92505" lon="3.21058">
        <ele>955</ele>
        <time>2010-01-01T01:46:44Z</time>
      </trkpt>
      <trkpt lat="44.92535" lon="3.20949">
        <ele>968</ele>
        <time>2010-01-01T01:46:59Z</time>
      </trkpt>
      <trkpt lat="44.92533" lon="3.2091">
        <ele>967</ele>
        <time>2010-01-01T01:47:04Z</time>
      </trkpt>
      <trkpt lat="44.9264" lon="3.20833">
        <ele>957</ele>
        <time>2010-01-01T01:47:26Z</time>
      </trkpt>
      <trkpt lat="44.92717" lon="3.20792">
        <ele>956</ele>
        <time>2010-01-01T01:47:41Z</time>
      </trkpt>
      <trkpt lat="44.93213" lon="3.20599">
        <ele>934</ele>
        <time>2010-01-01T01:49:15Z</time>
      </trkpt>
      <trkpt lat="44.93252" lon="3.20584">
        <ele>936</ele>
        <time>2010-01-01T01:49:22Z</time>
      </trkpt>
      <trkpt lat="44.93299" lon="3.20565">
        <ele>936</ele>
        <time>2010-01-01T01:49:31Z</time>
      </trkpt>
      <trkpt lat="44.93408" lon="3.20524">
        <ele>943</ele>
        <time>2010-01-01T01:49:52Z</time>
      </trkpt>
      <trkpt lat="44.9349" lon="3.20515">
        <ele>947</ele>
        <time>2010-01-01T01:50:07Z</time>
      </trkpt>
      <trkpt lat="44.93537" lon="3.20496">
        <ele>947</ele>
        <time>2010-01-01T01:50:16Z</time>
      </trkpt>
      <trkpt lat="44.93578" lon="3.20477">
        <ele>946</ele>
        <time>2010-01-01T01:50:23Z</time>
      </trkpt>
      <trkpt lat="44.93627" lon="3.20451">
        <ele>946</ele>
        <time>2010-01-01T01:50:33Z</time>
      </trkpt>
      <trkpt lat="44.93724" lon="3.20402">
        <ele>941</ele>
        <time>2010-01-01T01:50:52Z</time>
      </trkpt>
      <trkpt lat="44.93776" lon="3.20376">
        <ele>941</ele>
        <time>2010-01-01T01:51:02Z</time>
      </trkpt>
      <trkpt lat="44.93994" lon="3.20269">
        <ele>942</ele>
        <time>2010-01-01T01:51:44Z</time>
      </trkpt>
      <trkpt lat="44.94099" lon="3.20217">
        <ele>939</ele>
        <time>2010-01-01T01:52:04Z</time>
      </trkpt>
      <trkpt lat="44.94187" lon="3.20159">
        <ele>938</ele>
        <time>2010-01-01T01:52:22Z</time>
      </trkpt>
      <trkpt lat="44.94387" lon="3.2003">
        <ele>919</ele>
        <time>2010-01-01T01:53:02Z</time>
      </trkpt>
      <trkpt lat="44.94535" lon="3.1999">
        <ele>909</ele>
        <time>2010-01-01T01:53:29Z</time>
      </trkpt>
      <trkpt lat="44.9464" lon="3.19962">
        <ele>901</ele>
        <time>2010-01-01T01:53:48Z</time>
      </trkpt>
      <trkpt lat="44.94674" lon="3.19942">
        <ele>899</ele>
        <time>2010-01-01T01:53:55Z</time>
      </trkpt>
      <trkpt lat="44.94713" lon="3.19893">
        <ele>898</ele>
        <time>2010-01-01T01:54:05Z</time>
      </trkpt>
      <trkpt lat="44.9473" lon="3.19837">
        <ele>899</ele>
        <time>2010-01-01T01:54:13Z</time>
      </trkpt>
      <trkpt lat="44.94734" lon="3.1982">
        <ele>899</ele>
        <time>2010-01-01T01:54:15Z</time>
      </trkpt>
      <trkpt lat="44.94749" lon="3.19771">
        <ele>895</ele>
        <time>2010-01-01T01:54:22Z</time>
      </trkpt>
      <trkpt lat="44.94781" lon="3.19719">
        <ele>892</ele>
        <time>2010-01-01T01:54:31Z</time>
      </trkpt>
      <trkpt lat="44.94807" lon="3.197">
        <ele>891</ele>
        <time>2010-01-01T01:54:36Z</time>
      </trkpt>
      <trkpt lat="44.94893" lon="3.19668">
        <ele>895</ele>
        <time>2010-01-01T01:54:52Z</time>
      </trkpt>
      <trkpt lat="44.94934" lon="3.19655">
        <ele>895</ele>
        <time>2010-01-01T01:55:00Z</time>
      </trkpt>
      <trkpt lat="44.94975" lon="3.19633">
        <ele>894</ele>
        <time>2010-01-01T01:55:08Z</time>
      </trkpt>
      <trkpt lat="44.95056" lon="3.19582">
        <ele>891</ele>
        <time>2010-01-01T01:55:24Z</time>
      </trkpt>
      <trkpt lat="44.95245" lon="3.19455">
        <ele>890</ele>
        <time>2010-01-01T01:56:02Z</time>
      </trkpt>
      <trkpt lat="44.95335" lon="3.19389">
        <ele>888</ele>
        <time>2010-01-01T01:56:20Z</time>
      </trkpt>
      <trkpt lat="44.95397" lon="3.1934">
        <ele>886</ele>
        <time>2010-01-01T01:56:33Z</time>
      </trkpt>
      <trkpt lat="44.95447" lon="3.19301">
        <ele>883</ele>
        <time>2010-01-01T01:56:44Z</time>
      </trkpt>
      <trkpt lat="44.9547" lon="3.19279">
        <ele>883</ele>
        <time>2010-01-01T01:56:49Z</time>
      </trkpt>
      <trkpt lat="44.95492" lon="3.19264">
        <ele>882</ele>
        <time>2010-01-01T01:56:53Z</time>
      </trkpt>
      <trkpt lat="44.95511" lon="3.19245">
        <ele>881</ele>
        <time>2010-01-01T01:56:57Z</time>
      </trkpt>
      <trkpt lat="44.95702" lon="3.19091">
        <ele>877</ele>
        <time>2010-01-01T01:57:37Z</time>
      </trkpt>
      <trkpt lat="44.95779" lon="3.19026">
        <ele>876</ele>
        <time>2010-01-01T01:57:54Z</time>
      </trkpt>
      <trkpt lat="44.96226" lon="3.18664">
        <ele>865</ele>
        <time>2010-01-01T01:59:27Z</time>
      </trkpt>
      <trkpt lat="44.96341" lon="3.18567">
        <ele>864</ele>
        <time>2010-01-01T01:59:52Z</time>
      </trkpt>
      <trkpt lat="44.96402" lon="3.18507">
        <ele>863</ele>
        <time>2010-01-01T02:00:05Z</time>
      </trkpt>
      <trkpt lat="44.96485" lon="3.18417">
        <ele>859</ele>
        <time>2010-01-01T02:00:24Z</time>
      </trkpt>
      <trkpt lat="44.96573" lon="3.18325">
        <ele>856</ele>
        <time>2010-01-01T02:00:44Z</time>
      </trkpt>
      <trkpt lat="44.96738" lon="3.18153">
        <ele>850</ele>
        <time>2010-01-01T02:01:22Z</time>
      </trkpt>
      <trkpt lat="44.96917" lon="3.17968">
        <ele>846</ele>
        <time>2010-01-01T02:02:02Z</time>
      </trkpt>
      <trkpt lat="44.96947" lon="3.17936">
        <ele>843</ele>
        <time>2010-01-01T02:02:09Z</time>
      </trkpt>
      <trkpt lat="44.97005" lon="3.17887">
        <ele>831</ele>
        <time>2010-01-01T02:02:21Z</time>
      </trkpt>
      <trkpt lat="44.97101" lon="3.17831">
        <ele>826</ele>
        <time>2010-01-01T02:02:40Z</time>
      </trkpt>
      <trkpt lat="44.97125" lon="3.17831">
        <ele>828</ele>
        <time>2010-01-01T02:02:44Z</time>
      </trkpt>
      <trkpt lat="44.97146" lon="3.17855">
        <ele>831</ele>
        <time>2010-01-01T02:02:49Z</time>
      </trkpt>
      <trkpt lat="44.97159" lon="3.179">
        <ele>830</ele>
        <time>2010-01-01T02:02:56Z</time>
      </trkpt>
      <trkpt lat="44.97168" lon="3.1794">
        <ele>828</ele>
        <time>2010-01-01T02:03:01Z</time>
      </trkpt>
      <trkpt lat="44.97174" lon="3.17949">
        <ele>828</ele>
        <time>2010-01-01T02:03:03Z</time>
      </trkpt>
      <trkpt lat="44.97183" lon="3.17953">
        <ele>826</ele>
        <time>2010-01-01T02:03:04Z</time>
      </trkpt>
      <trkpt lat="44.972" lon="3.17947">
        <ele>824</ele>
        <time>2010-01-01T02:03:08Z</time>
      </trkpt>
      <trkpt lat="44.97232" lon="3.179">
        <ele>822</ele>
        <time>2010-01-01T02:03:16Z</time>
      </trkpt>
      <trkpt lat="44.97241" lon="3.1788">
        <ele>822</ele>
        <time>2010-01-01T02:03:19Z</time>
      </trkpt>
      <trkpt lat="44.97247" lon="3.17844">
        <ele>824</ele>
        <time>2010-01-01T02:03:24Z</time>
      </trkpt>
      <trkpt lat="44.97221" lon="3.17737">
        <ele>807</ele>
        <time>2010-01-01T02:03:38Z</time>
      </trkpt>
      <trkpt lat="44.97206" lon="3.17698">
        <ele>806</ele>
        <time>2010-01-01T02:03:44Z</time>
      </trkpt>
      <trkpt lat="44.97206" lon="3.17687">
        <ele>806</ele>
        <time>2010-01-01T02:03:45Z</time>
      </trkpt>
      <trkpt lat="44.97213" lon="3.17672">
        <ele>805</ele>
        <time>2010-01-01T02:03:48Z</time>
      </trkpt>
      <trkpt lat="44.97226" lon="3.17668">
        <ele>804</ele>
        <time>2010-01-01T02:03:50Z</time>
      </trkpt>
      <trkpt lat="44.97264" lon="3.17672">
        <ele>801</ele>
        <time>2010-01-01T02:03:57Z</time>
      </trkpt>
      <trkpt lat="44.97307" lon="3.17683">
        <ele>795</ele>
        <time>2010-01-01T02:04:05Z</time>
      </trkpt>
      <trkpt lat="44.97318" lon="3.17687">
        <ele>795</ele>
        <time>2010-01-01T02:04:07Z</time>
      </trkpt>
      <trkpt lat="44.97333" lon="3.17711">
        <ele>799</ele>
        <time>2010-01-01T02:04:11Z</time>
      </trkpt>
      <trkpt lat="44.9735" lon="3.1776">
        <ele>810</ele>
        <time>2010-01-01T02:04:18Z</time>
      </trkpt>
      <trkpt lat="44.97356" lon="3.17812">
        <ele>805</ele>
        <time>2010-01-01T02:04:25Z</time>
      </trkpt>
      <trkpt lat="44.97354" lon="3.1785">
        <ele>796</ele>
        <time>2010-01-01T02:04:30Z</time>
      </trkpt>
      <trkpt lat="44.97341" lon="3.17904">
        <ele>792</ele>
        <time>2010-01-01T02:04:37Z</time>
      </trkpt>
      <trkpt lat="44.97322" lon="3.17951">
        <ele>790</ele>
        <time>2010-01-01T02:04:44Z</time>
      </trkpt>
      <trkpt lat="44.97288" lon="3.18001">
        <ele>792</ele>
        <time>2010-01-01T02:04:53Z</time>
      </trkpt>
      <trkpt lat="44.97292" lon="3.1802">
        <ele>784</ele>
        <time>2010-01-01T02:04:56Z</time>
      </trkpt>
      <trkpt lat="44.97305" lon="3.18022">
        <ele>779</ele>
        <time>2010-01-01T02:04:58Z</time>
      </trkpt>
      <trkpt lat="44.97326" lon="3.18001">
        <ele>779</ele>
        <time>2010-01-01T02:05:03Z</time>
      </trkpt>
      <trkpt lat="44.97365" lon="3.17955">
        <ele>780</ele>
        <time>2010-01-01T02:05:12Z</time>
      </trkpt>
      <trkpt lat="44.9738" lon="3.1793">
        <ele>780</ele>
        <time>2010-01-01T02:05:16Z</time>
      </trkpt>
      <trkpt lat="44.97432" lon="3.17812">
        <ele>780</ele>
        <time>2010-01-01T02:05:34Z</time>
      </trkpt>
      <trkpt lat="44.97438" lon="3.1779">
        <ele>789</ele>
        <time>2010-01-01T02:05:37Z</time>
      </trkpt>
      <trkpt lat="44.9744" lon="3.17756">
        <ele>800</ele>
        <time>2010-01-01T02:05:42Z</time>
      </trkpt>
      <trkpt lat="44.97425" lon="3.17694">
        <ele>774</ele>
        <time>2010-01-01T02:05:50Z</time>
      </trkpt>
      <trkpt lat="44.97359" lon="3.17569">
        <ele>767</ele>
        <time>2010-01-01T02:06:10Z</time>
      </trkpt>
      <trkpt lat="44.97305" lon="3.17509">
        <ele>762</ele>
        <time>2010-01-01T02:06:23Z</time>
      </trkpt>
      <trkpt lat="44.97288" lon="3.17479">
        <ele>757</ele>
        <time>2010-01-01T02:06:28Z</time>
      </trkpt>
      <trkpt lat="44.9729" lon="3.17447">
        <ele>744</ele>
        <time>2010-01-01T02:06:32Z</time>
      </trkpt>
      <trkpt lat="44.97307" lon="3.17423">
        <ele>735</ele>
        <time>2010-01-01T02:06:36Z</time>
      </trkpt>
      <trkpt lat="44.97324" lon="3.174">
        <ele>735</ele>
        <time>2010-01-01T02:06:40Z</time>
      </trkpt>
      <trkpt lat="44.9741" lon="3.17284">
        <ele>735</ele>
        <time>2010-01-01T02:07:02Z</time>
      </trkpt>
      <trkpt lat="44.97427" lon="3.17252">
        <ele>735</ele>
        <time>2010-01-01T02:07:07Z</time>
      </trkpt>
      <trkpt lat="44.97425" lon="3.17222">
        <ele>741</ele>
        <time>2010-01-01T02:07:11Z</time>
      </trkpt>
      <trkpt lat="44.9738" lon="3.17123">
        <ele>748</ele>
        <time>2010-01-01T02:07:26Z</time>
      </trkpt>
      <trkpt lat="44.97376" lon="3.17084">
        <ele>749</ele>
        <time>2010-01-01T02:07:31Z</time>
      </trkpt>
      <trkpt lat="44.97384" lon="3.16979">
        <ele>747</ele>
        <time>2010-01-01T02:07:45Z</time>
      </trkpt>
      <trkpt lat="44.97397" lon="3.16934">
        <ele>750</ele>
        <time>2010-01-01T02:07:51Z</time>
      </trkpt>
      <trkpt lat="44.97455" lon="3.16801">
        <ele>755</ele>
        <time>2010-01-01T02:08:11Z</time>
      </trkpt>
      <trkpt lat="44.97477" lon="3.16777">
        <ele>759</ele>
        <time>2010-01-01T02:08:16Z</time>
      </trkpt>
      <trkpt lat="44.97496" lon="3.16769">
        <ele>765</ele>
        <time>2010-01-01T02:08:20Z</time>
      </trkpt>
      <trkpt lat="44.97511" lon="3.16767">
        <ele>768</ele>
        <time>2010-01-01T02:08:23Z</time>
      </trkpt>
      <trkpt lat="44.97519" lon="3.1678">
        <ele>771</ele>
        <time>2010-01-01T02:08:25Z</time>
      </trkpt>
      <trkpt lat="44.97522" lon="3.1679">
        <ele>773</ele>
        <time>2010-01-01T02:08:26Z</time>
      </trkpt>
      <trkpt lat="44.97481" lon="3.16859">
        <ele>771</ele>
        <time>2010-01-01T02:08:38Z</time>
      </trkpt>
      <trkpt lat="44.97459" lon="3.16932">
        <ele>772</ele>
        <time>2010-01-01T02:08:48Z</time>
      </trkpt>
      <trkpt lat="44.97455" lon="3.16986">
        <ele>774</ele>
        <time>2010-01-01T02:08:55Z</time>
      </trkpt>
      <trkpt lat="44.97457" lon="3.16996">
        <ele>775</ele>
        <time>2010-01-01T02:08:56Z</time>
      </trkpt>
      <trkpt lat="44.9747" lon="3.17001">
        <ele>782</ele>
        <time>2010-01-01T02:08:59Z</time>
      </trkpt>
      <trkpt lat="44.97515" lon="3.16953">
        <ele>789</ele>
        <time>2010-01-01T02:09:09Z</time>
      </trkpt>
      <trkpt lat="44.97671" lon="3.16843">
        <ele>803</ele>
        <time>2010-01-01T02:09:41Z</time>
      </trkpt>
      <trkpt lat="44.97687" lon="3.16831">
        <ele>805</ele>
        <time>2010-01-01T02:09:44Z</time>
      </trkpt>
      <trkpt lat="44.97728" lon="3.16812">
        <ele>811</ele>
        <time>2010-01-01T02:09:52Z</time>
      </trkpt>
      <trkpt lat="44.97809" lon="3.16797">
        <ele>815</ele>
        <time>2010-01-01T02:10:07Z</time>
      </trkpt>
      <trkpt lat="44.97884" lon="3.16786">
        <ele>827</ele>
        <time>2010-01-01T02:10:21Z</time>
      </trkpt>
      <trkpt lat="44.9791" lon="3.16777">
        <ele>828</ele>
        <time>2010-01-01T02:10:25Z</time>
      </trkpt>
      <trkpt lat="44.97921" lon="3.16765">
        <ele>828</ele>
        <time>2010-01-01T02:10:28Z</time>
      </trkpt>
      <trkpt lat="44.97931" lon="3.16728">
        <ele>830</ele>
        <time>2010-01-01T02:10:33Z</time>
      </trkpt>
      <trkpt lat="44.9794" lon="3.16705">
        <ele>833</ele>
        <time>2010-01-01T02:10:36Z</time>
      </trkpt>
      <trkpt lat="44.97953" lon="3.16683">
        <ele>837</ele>
        <time>2010-01-01T02:10:40Z</time>
      </trkpt>
      <trkpt lat="44.97959" lon="3.16674">
        <ele>839</ele>
        <time>2010-01-01T02:10:42Z</time>
      </trkpt>
      <trkpt lat="44.97981" lon="3.1667">
        <ele>843</ele>
        <time>2010-01-01T02:10:46Z</time>
      </trkpt>
      <trkpt lat="44.98" lon="3.16683">
        <ele>848</ele>
        <time>2010-01-01T02:10:49Z</time>
      </trkpt>
      <trkpt lat="44.98092" lon="3.16835">
        <ele>853</ele>
        <time>2010-01-01T02:11:15Z</time>
      </trkpt>
      <trkpt lat="44.98114" lon="3.16863">
        <ele>859</ele>
        <time>2010-01-01T02:11:21Z</time>
      </trkpt>
      <trkpt lat="44.98135" lon="3.1687">
        <ele>861</ele>
        <time>2010-01-01T02:11:25Z</time>
      </trkpt>
      <trkpt lat="44.98174" lon="3.16857">
        <ele>863</ele>
        <time>2010-01-01T02:11:32Z</time>
      </trkpt>
      <trkpt lat="44.98271" lon="3.16801">
        <ele>863</ele>
        <time>2010-01-01T02:11:51Z</time>
      </trkpt>
      <trkpt lat="44.98404" lon="3.16711">
        <ele>866</ele>
        <time>2010-01-01T02:12:18Z</time>
      </trkpt>
      <trkpt lat="44.98515" lon="3.16634">
        <ele>867</ele>
        <time>2010-01-01T02:12:40Z</time>
      </trkpt>
      <trkpt lat="44.98582" lon="3.16586">
        <ele>869</ele>
        <time>2010-01-01T02:12:54Z</time>
      </trkpt>
      <trkpt lat="44.98607" lon="3.16569">
        <ele>870</ele>
        <time>2010-01-01T02:12:59Z</time>
      </trkpt>
      <trkpt lat="44.9864" lon="3.16548">
        <ele>872</ele>
        <time>2010-01-01T02:13:05Z</time>
      </trkpt>
      <trkpt lat="44.98766" lon="3.16458">
        <ele>871</ele>
        <time>2010-01-01T02:13:31Z</time>
      </trkpt>
      <trkpt lat="44.98867" lon="3.16398">
        <ele>869</ele>
        <time>2010-01-01T02:13:51Z</time>
      </trkpt>
      <trkpt lat="44.98927" lon="3.16381">
        <ele>868</ele>
        <time>2010-01-01T02:14:02Z</time>
      </trkpt>
      <trkpt lat="44.98994" lon="3.16376">
        <ele>866</ele>
        <time>2010-01-01T02:14:14Z</time>
      </trkpt>
      <trkpt lat="44.99088" lon="3.16385">
        <ele>868</ele>
        <time>2010-01-01T02:14:32Z</time>
      </trkpt>
      <trkpt lat="44.99268" lon="3.16421">
        <ele>874</ele>
        <time>2010-01-01T02:15:05Z</time>
      </trkpt>
      <trkpt lat="44.99614" lon="3.16442">
        <ele>868</ele>
        <time>2010-01-01T02:16:08Z</time>
      </trkpt>
      <trkpt lat="44.99762" lon="3.16451">
        <ele>867</ele>
        <time>2010-01-01T02:16:35Z</time>
      </trkpt>
      <trkpt lat="44.99822" lon="3.16456">
        <ele>868</ele>
        <time>2010-01-01T02:16:46Z</time>
      </trkpt>
      <trkpt lat="44.99833" lon="3.16456">
        <ele>868</ele>
        <time>2010-01-01T02:16:48Z</time>
      </trkpt>
      <trkpt lat="44.99839" lon="3.16456">
        <ele>868</ele>
        <time>2010-01-01T02:16:49Z</time>
      </trkpt>
      <trkpt lat="44.99942" lon="3.16462">
        <ele>862</ele>
        <time>2010-01-01T02:17:07Z</time>
      </trkpt>
      <trkpt lat="45" lon="3.16453">
        <ele>856</ele>
        <time>2010-01-01T02:17:18Z</time>
      </trkpt>
      <trkpt lat="45.00058" lon="3.16426">
        <ele>854</ele>
        <time>2010-01-01T02:17:29Z</time>
      </trkpt>
      <trkpt lat="45.00521" lon="3.16061">
        <ele>863</ele>
        <time>2010-01-01T02:19:06Z</time>
      </trkpt>
      <trkpt lat="45.00715" lon="3.15938">
        <ele>873</ele>
        <time>2010-01-01T02:19:44Z</time>
      </trkpt>
      <trkpt lat="45.00777" lon="3.15906">
        <ele>876</ele>
        <time>2010-01-01T02:19:56Z</time>
      </trkpt>
      <trkpt lat="45.00843" lon="3.15874">
        <ele>879</ele>
        <time>2010-01-01T02:20:09Z</time>
      </trkpt>
      <trkpt lat="45.00951" lon="3.15803">
        <ele>881</ele>
        <time>2010-01-01T02:20:31Z</time>
      </trkpt>
      <trkpt lat="45.00968" lon="3.1579">
        <ele>881</ele>
        <time>2010-01-01T02:20:34Z</time>
      </trkpt>
      <trkpt lat="45.01036" lon="3.15728">
        <ele>881</ele>
        <time>2010-01-01T02:20:49Z</time>
      </trkpt>
      <trkpt lat="45.01062" lon="3.15705">
        <ele>880</ele>
        <time>2010-01-01T02:20:55Z</time>
      </trkpt>
      <trkpt lat="45.0109" lon="3.15675">
        <ele>880</ele>
        <time>2010-01-01T02:21:01Z</time>
      </trkpt>
      <trkpt lat="45.01103" lon="3.15647">
        <ele>880</ele>
        <time>2010-01-01T02:21:05Z</time>
      </trkpt>
      <trkpt lat="45.01107" lon="3.15587">
        <ele>877</ele>
        <time>2010-01-01T02:21:13Z</time>
      </trkpt>
      <trkpt lat="45.01122" lon="3.15554">
        <ele>880</ele>
        <time>2010-01-01T02:21:18Z</time>
      </trkpt>
      <trkpt lat="45.01142" lon="3.15542">
        <ele>883</ele>
        <time>2010-01-01T02:21:22Z</time>
      </trkpt>
      <trkpt lat="45.01169" lon="3.15546">
        <ele>884</ele>
        <time>2010-01-01T02:21:27Z</time>
      </trkpt>
      <trkpt lat="45.01208" lon="3.15561">
        <ele>880</ele>
        <time>2010-01-01T02:21:34Z</time>
      </trkpt>
      <trkpt lat="45.01245" lon="3.15557">
        <ele>879</ele>
        <time>2010-01-01T02:21:41Z</time>
      </trkpt>
      <trkpt lat="45.0127" lon="3.15544">
        <ele>878</ele>
        <time>2010-01-01T02:21:46Z</time>
      </trkpt>
      <trkpt lat="45.01328" lon="3.15486">
        <ele>876</ele>
        <time>2010-01-01T02:21:59Z</time>
      </trkpt>
      <trkpt lat="45.01356" lon="3.15456">
        <ele>872</ele>
        <time>2010-01-01T02:22:05Z</time>
      </trkpt>
      <trkpt lat="45.01408" lon="3.154">
        <ele>870</ele>
        <time>2010-01-01T02:22:17Z</time>
      </trkpt>
      <trkpt lat="45.01481" lon="3.15308">
        <ele>864</ele>
        <time>2010-01-01T02:22:35Z</time>
      </trkpt>
      <trkpt lat="45.01635" lon="3.15074">
        <ele>852</ele>
        <time>2010-01-01T02:23:16Z</time>
      </trkpt>
      <trkpt lat="45.01706" lon="3.14954">
        <ele>844</ele>
        <time>2010-01-01T02:23:36Z</time>
      </trkpt>
      <trkpt lat="45.0176" lon="3.14889">
        <ele>842</ele>
        <time>2010-01-01T02:23:49Z</time>
      </trkpt>
      <trkpt lat="45.01796" lon="3.14859">
        <ele>840</ele>
        <time>2010-01-01T02:23:57Z</time>
      </trkpt>
      <trkpt lat="45.01897" lon="3.14793">
        <ele>827</ele>
        <time>2010-01-01T02:24:17Z</time>
      </trkpt>
      <trkpt lat="45.02047" lon="3.14748">
        <ele>820</ele>
        <time>2010-01-01T02:24:45Z</time>
      </trkpt>
      <trkpt lat="45.02092" lon="3.14741">
        <ele>819</ele>
        <time>2010-01-01T02:24:53Z</time>
      </trkpt>
      <trkpt lat="45.02176" lon="3.14756">
        <ele>813</ele>
        <time>2010-01-01T02:25:08Z</time>
      </trkpt>
      <trkpt lat="45.02236" lon="3.14745">
        <ele>813</ele>
        <time>2010-01-01T02:25:19Z</time>
      </trkpt>
      <trkpt lat="45.02324" lon="3.14696">
        <ele>807</ele>
        <time>2010-01-01T02:25:37Z</time>
      </trkpt>
      <trkpt lat="45.02347" lon="3.14666">
        <ele>803</ele>
        <time>2010-01-01T02:25:42Z</time>
      </trkpt>
      <trkpt lat="45.02362" lon="3.14638">
        <ele>800</ele>
        <time>2010-01-01T02:25:47Z</time>
      </trkpt>
      <trkpt lat="45.02386" lon="3.14548">
        <ele>801</ele>
        <time>2010-01-01T02:25:59Z</time>
      </trkpt>
      <trkpt lat="45.02408" lon="3.14447">
        <ele>792</ele>
        <time>2010-01-01T02:26:13Z</time>
      </trkpt>
      <trkpt lat="45.02423" lon="3.14376">
        <ele>786</ele>
        <time>2010-01-01T02:26:22Z</time>
      </trkpt>
      <trkpt lat="45.0244" lon="3.14342">
        <ele>790</ele>
        <time>2010-01-01T02:26:28Z</time>
      </trkpt>
      <trkpt lat="45.02457" lon="3.14325">
        <ele>795</ele>
        <time>2010-01-01T02:26:31Z</time>
      </trkpt>
      <trkpt lat="45.02485" lon="3.14318">
        <ele>798</ele>
        <time>2010-01-01T02:26:37Z</time>
      </trkpt>
      <trkpt lat="45.0256" lon="3.14331">
        <ele>802</ele>
        <time>2010-01-01T02:26:50Z</time>
      </trkpt>
      <trkpt lat="45.02588" lon="3.14346">
        <ele>799</ele>
        <time>2010-01-01T02:26:56Z</time>
      </trkpt>
      <trkpt lat="45.02633" lon="3.14398">
        <ele>798</ele>
        <time>2010-01-01T02:27:06Z</time>
      </trkpt>
      <trkpt lat="45.02663" lon="3.14415">
        <ele>800</ele>
        <time>2010-01-01T02:27:12Z</time>
      </trkpt>
      <trkpt lat="45.02699" lon="3.14415">
        <ele>807</ele>
        <time>2010-01-01T02:27:19Z</time>
      </trkpt>
      <trkpt lat="45.02766" lon="3.14391">
        <ele>811</ele>
        <time>2010-01-01T02:27:31Z</time>
      </trkpt>
      <trkpt lat="45.02839" lon="3.14398">
        <ele>814</ele>
        <time>2010-01-01T02:27:45Z</time>
      </trkpt>
      <trkpt lat="45.02873" lon="3.14387">
        <ele>818</ele>
        <time>2010-01-01T02:27:51Z</time>
      </trkpt>
      <trkpt lat="45.02914" lon="3.14357">
        <ele>820</ele>
        <time>2010-01-01T02:27:59Z</time>
      </trkpt>
      <trkpt lat="45.02938" lon="3.14323">
        <ele>821</ele>
        <time>2010-01-01T02:28:06Z</time>
      </trkpt>
      <trkpt lat="45.02957" lon="3.14276">
        <ele>822</ele>
        <time>2010-01-01T02:28:13Z</time>
      </trkpt>
      <trkpt lat="45.02974" lon="3.14181">
        <ele>824</ele>
        <time>2010-01-01T02:28:25Z</time>
      </trkpt>
      <trkpt lat="45.02989" lon="3.14138">
        <ele>823</ele>
        <time>2010-01-01T02:28:31Z</time>
      </trkpt>
      <trkpt lat="45.03006" lon="3.14121">
        <ele>822</ele>
        <time>2010-01-01T02:28:35Z</time>
      </trkpt>
      <trkpt lat="45.03019" lon="3.14125">
        <ele>822</ele>
        <time>2010-01-01T02:28:38Z</time>
      </trkpt>
      <trkpt lat="45.03026" lon="3.14136">
        <ele>822</ele>
        <time>2010-01-01T02:28:39Z</time>
      </trkpt>
      <trkpt lat="45.0303" lon="3.14157">
        <ele>821</ele>
        <time>2010-01-01T02:28:42Z</time>
      </trkpt>
      <trkpt lat="45.03045" lon="3.14168">
        <ele>821</ele>
        <time>2010-01-01T02:28:45Z</time>
      </trkpt>
      <trkpt lat="45.03062" lon="3.1416">
        <ele>820</ele>
        <time>2010-01-01T02:28:49Z</time>
      </trkpt>
      <trkpt lat="45.03066" lon="3.14149">
        <ele>820</ele>
        <time>2010-01-01T02:28:50Z</time>
      </trkpt>
      <trkpt lat="45.03064" lon="3.14121">
        <ele>821</ele>
        <time>2010-01-01T02:28:54Z</time>
      </trkpt>
      <trkpt lat="45.03062" lon="3.14106">
        <ele>821</ele>
        <time>2010-01-01T02:28:56Z</time>
      </trkpt>
      <trkpt lat="45.03062" lon="3.14078">
        <ele>822</ele>
        <time>2010-01-01T02:28:59Z</time>
      </trkpt>
      <trkpt lat="45.03064" lon="3.14048">
        <ele>823</ele>
        <time>2010-01-01T02:29:03Z</time>
      </trkpt>
      <trkpt lat="45.03071" lon="3.14003">
        <ele>824</ele>
        <time>2010-01-01T02:29:09Z</time>
      </trkpt>
      <trkpt lat="45.03077" lon="3.13924">
        <ele>822</ele>
        <time>2010-01-01T02:29:19Z</time>
      </trkpt>
      <trkpt lat="45.03086" lon="3.13859">
        <ele>821</ele>
        <time>2010-01-01T02:29:28Z</time>
      </trkpt>
      <trkpt lat="45.03092" lon="3.13793">
        <ele>820</ele>
        <time>2010-01-01T02:29:36Z</time>
      </trkpt>
      <trkpt lat="45.03107" lon="3.13649">
        <ele>819</ele>
        <time>2010-01-01T02:29:55Z</time>
      </trkpt>
      <trkpt lat="45.03114" lon="3.13576">
        <ele>821</ele>
        <time>2010-01-01T02:30:05Z</time>
      </trkpt>
      <trkpt lat="45.03118" lon="3.1354">
        <ele>819</ele>
        <time>2010-01-01T02:30:09Z</time>
      </trkpt>
      <trkpt lat="45.03124" lon="3.13475">
        <ele>819</ele>
        <time>2010-01-01T02:30:18Z</time>
      </trkpt>
      <trkpt lat="45.03137" lon="3.13464">
        <ele>818</ele>
        <time>2010-01-01T02:30:20Z</time>
      </trkpt>
      <trkpt lat="45.03139" lon="3.13454">
        <ele>818</ele>
        <time>2010-01-01T02:30:22Z</time>
      </trkpt>
      <trkpt lat="45.03137" lon="3.13443">
        <ele>819</ele>
        <time>2010-01-01T02:30:23Z</time>
      </trkpt>
      <trkpt lat="45.03129" lon="3.13434">
        <ele>819</ele>
        <time>2010-01-01T02:30:25Z</time>
      </trkpt>
      <trkpt lat="45.03133" lon="3.13366">
        <ele>819</ele>
        <time>2010-01-01T02:30:34Z</time>
      </trkpt>
      <trkpt lat="45.03144" lon="3.13271">
        <ele>817</ele>
        <time>2010-01-01T02:30:46Z</time>
      </trkpt>
      <trkpt lat="45.03161" lon="3.13194">
        <ele>820</ele>
        <time>2010-01-01T02:30:57Z</time>
      </trkpt>
      <trkpt lat="45.03186" lon="3.13115">
        <ele>819</ele>
        <time>2010-01-01T02:31:08Z</time>
      </trkpt>
      <trkpt lat="45.03232" lon="3.13018">
        <ele>821</ele>
        <time>2010-01-01T02:31:23Z</time>
      </trkpt>
      <trkpt lat="45.03253" lon="3.12973">
        <ele>821</ele>
        <time>2010-01-01T02:31:30Z</time>
      </trkpt>
      <trkpt lat="45.03266" lon="3.12975">
        <ele>819</ele>
        <time>2010-01-01T02:31:32Z</time>
      </trkpt>
      <trkpt lat="45.03272" lon="3.12971">
        <ele>817</ele>
        <time>2010-01-01T02:31:34Z</time>
      </trkpt>
      <trkpt lat="45.03277" lon="3.12964">
        <ele>816</ele>
        <time>2010-01-01T02:31:35Z</time>
      </trkpt>
      <trkpt lat="45.03272" lon="3.12939">
        <ele>817</ele>
        <time>2010-01-01T02:31:38Z</time>
      </trkpt>
      <trkpt lat="45.03294" lon="3.12891">
        <ele>817</ele>
        <time>2010-01-01T02:31:45Z</time>
      </trkpt>
      <trkpt lat="45.03311" lon="3.12851">
        <ele>813</ele>
        <time>2010-01-01T02:31:51Z</time>
      </trkpt>
      <trkpt lat="45.0332" lon="3.12825">
        <ele>811</ele>
        <time>2010-01-01T02:31:55Z</time>
      </trkpt>
      <trkpt lat="45.03345" lon="3.12718">
        <ele>808</ele>
        <time>2010-01-01T02:32:10Z</time>
      </trkpt>
      <trkpt lat="45.03356" lon="3.12649">
        <ele>803</ele>
        <time>2010-01-01T02:32:19Z</time>
      </trkpt>
      <trkpt lat="45.03358" lon="3.12587">
        <ele>801</ele>
        <time>2010-01-01T02:32:27Z</time>
      </trkpt>
      <trkpt lat="45.03354" lon="3.12394">
        <ele>796</ele>
        <time>2010-01-01T02:32:52Z</time>
      </trkpt>
      <trkpt lat="45.0335" lon="3.12338">
        <ele>798</ele>
        <time>2010-01-01T02:32:59Z</time>
      </trkpt>
      <trkpt lat="45.03337" lon="3.12266">
        <ele>793</ele>
        <time>2010-01-01T02:33:08Z</time>
      </trkpt>
      <trkpt lat="45.03332" lon="3.12237">
        <ele>790</ele>
        <time>2010-01-01T02:33:12Z</time>
      </trkpt>
      <trkpt lat="45.03283" lon="3.12057">
        <ele>779</ele>
        <time>2010-01-01T02:33:37Z</time>
      </trkpt>
      <trkpt lat="45.03268" lon="3.11984">
        <ele>782</ele>
        <time>2010-01-01T02:33:47Z</time>
      </trkpt>
      <trkpt lat="45.03251" lon="3.11859">
        <ele>782</ele>
        <time>2010-01-01T02:34:03Z</time>
      </trkpt>
      <trkpt lat="45.03232" lon="3.11782">
        <ele>782</ele>
        <time>2010-01-01T02:34:14Z</time>
      </trkpt>
      <trkpt lat="45.03214" lon="3.11735">
        <ele>783</ele>
        <time>2010-01-01T02:34:20Z</time>
      </trkpt>
      <trkpt lat="45.03159" lon="3.11587">
        <ele>779</ele>
        <time>2010-01-01T02:34:42Z</time>
      </trkpt>
      <trkpt lat="45.03139" lon="3.11544">
        <ele>778</ele>
        <time>2010-01-01T02:34:49Z</time>
      </trkpt>
      <trkpt lat="45.03114" lon="3.11477">
        <ele>775</ele>
        <time>2010-01-01T02:34:58Z</time>
      </trkpt>
      <trkpt lat="45.03109" lon="3.11426">
        <ele>773</ele>
        <time>2010-01-01T02:35:05Z</time>
      </trkpt>
      <trkpt lat="45.03129" lon="3.11381">
        <ele>774</ele>
        <time>2010-01-01T02:35:12Z</time>
      </trkpt>
      <trkpt lat="45.03223" lon="3.11248">
        <ele>778</ele>
        <time>2010-01-01T02:35:36Z</time>
      </trkpt>
      <trkpt lat="45.03251" lon="3.11186">
        <ele>779</ele>
        <time>2010-01-01T02:35:45Z</time>
      </trkpt>
      <trkpt lat="45.0327" lon="3.11151">
        <ele>778</ele>
        <time>2010-01-01T02:35:51Z</time>
      </trkpt>
      <trkpt lat="45.033" lon="3.11123">
        <ele>777</ele>
        <time>2010-01-01T02:35:58Z</time>
      </trkpt>
      <trkpt lat="45.03313" lon="3.11115">
        <ele>776</ele>
        <time>2010-01-01T02:36:00Z</time>
      </trkpt>
      <trkpt lat="45.03371" lon="3.11085">
        <ele>780</ele>
        <time>2010-01-01T02:36:11Z</time>
      </trkpt>
      <trkpt lat="45.03382" lon="3.11065">
        <ele>780</ele>
        <time>2010-01-01T02:36:15Z</time>
      </trkpt>
      <trkpt lat="45.03392" lon="3.11007">
        <ele>775</ele>
        <time>2010-01-01T02:36:22Z</time>
      </trkpt>
      <trkpt lat="45.03395" lon="3.10973">
        <ele>774</ele>
        <time>2010-01-01T02:36:27Z</time>
      </trkpt>
      <trkpt lat="45.03395" lon="3.10954">
        <ele>774</ele>
        <time>2010-01-01T02:36:29Z</time>
      </trkpt>
      <trkpt lat="45.03395" lon="3.10947">
        <ele>774</ele>
        <time>2010-01-01T02:36:30Z</time>
      </trkpt>
      <trkpt lat="45.03375" lon="3.106">
        <ele>772</ele>
        <time>2010-01-01T02:37:15Z</time>
      </trkpt>
    </trkseg>
  </trk>
</gpx>